Wetterdaten: Freitag, 17.07.2015
Datum Zeit Temp. Aussen +5cm Feuchte Auss BlattFeu 1 Luftdruck Regen Sonnenschein Regendauer Solar Windben
17.07.2015 00:00 23,3 C 21,1 C 74 % 0 lf 1013,9 hPa 0,0 l/m 0 min 0 min 0 W/m 4,2 km/h (1 Bft)
17.07.2015 00:02 23,3 C 21,1 C 74 % 0 lf 1014,0 hPa 0,0 l/m 0 min 0 min 0 W/m 6,3 km/h (2 Bft)
17.07.2015 00:05 23,3 C 21,1 C 74 % 0 lf 1014,1 hPa 0,0 l/m 0 min 0 min 0 W/m 6,3 km/h (2 Bft)
17.07.2015 00:08 23,3 C 21,1 C 74 % 0 lf 1014,1 hPa 0,0 l/m 0 min 0 min 0 W/m 6,3 km/h (2 Bft)
17.07.2015 00:10 23,2 C 21,1 C 74 % 0 lf 1014,0 hPa 0,0 l/m 0 min 0 min 0 W/m 6,3 km/h (2 Bft)
17.07.2015 00:12 23,2 C 21,1 C 74 % 0 lf 1014,0 hPa 0,0 l/m 0 min 0 min 0 W/m 6,3 km/h (2 Bft)
17.07.2015 00:14 23,2 C 21,1 C 74 % 0 lf 1013,9 hPa 0,0 l/m 0 min 0 min 0 W/m 6,3 km/h (2 Bft)
17.07.2015 00:16 23,2 C 21,1 C 74 % 0 lf 1013,7 hPa 0,0 l/m 0 min 0 min 0 W/m 6,3 km/h (2 Bft)
17.07.2015 00:18 23,2 C 21,1 C 74 % 0 lf 1013,6 hPa 0,0 l/m 0 min 0 min 0 W/m 12,6 km/h (3 Bft)
17.07.2015 00:20 23,2 C 21,1 C 75 % 0 lf 1013,3 hPa 0,0 l/m 0 min 0 min 0 W/m 12,6 km/h (3 Bft)
17.07.2015 00:22 23,1 C 21,1 C 74 % 0 lf 1013,2 hPa 0,0 l/m 0 min 0 min 0 W/m 18,8 km/h (3 Bft)
17.07.2015 00:24 23,1 C 21,1 C 75 % 0 lf 1013,2 hPa 0,0 l/m 0 min 2 min 0 W/m 14,6 km/h (3 Bft)
17.07.2015 00:26 23,1 C 21,1 C 75 % 2 lf 1013,1 hPa 0,0 l/m 0 min 2 min 0 W/m 18,8 km/h (3 Bft)
17.07.2015 00:28 23,0 C 21,1 C 75 % 0 lf 1013,0 hPa 0,0 l/m 0 min 2 min 0 W/m 18,8 km/h (3 Bft)
17.07.2015 00:30 23,0 C 21,1 C 75 % 0 lf 1013,0 hPa 0,0 l/m 0 min 0 min 0 W/m 23,0 km/h (4 Bft)
17.07.2015 00:32 22,9 C 21,1 C 75 % 0 lf 1013,0 hPa 0,0 l/m 0 min 0 min 0 W/m 27,2 km/h (4 Bft)
17.07.2015 00:34 22,9 C 21,1 C 75 % 0 lf 1012,9 hPa 0,0 l/m 0 min 0 min 0 W/m 16,7 km/h (3 Bft)
17.07.2015 00:36 22,9 C 21,1 C 75 % 0 lf 1012,8 hPa 0,0 l/m 0 min 0 min 0 W/m 20,9 km/h (4 Bft)
17.07.2015 00:38 22,9 C 21,1 C 75 % 0 lf 1012,8 hPa 0,0 l/m 0 min 0 min 0 W/m 20,9 km/h (4 Bft)
17.07.2015 00:40 22,9 C 21,1 C 75 % 0 lf 1012,9 hPa 0,0 l/m 0 min 0 min 0 W/m 14,6 km/h (3 Bft)
17.07.2015 00:42 22,8 C 21,1 C 75 % 0 lf 1012,8 hPa 0,0 l/m 0 min 0 min 0 W/m 14,6 km/h (3 Bft)
17.07.2015 00:44 22,8 C 21,1 C 75 % 0 lf 1012,9 hPa 0,0 l/m 0 min 0 min 0 W/m 18,8 km/h (3 Bft)
17.07.2015 00:46 22,8 C 21,1 C 75 % 0 lf 1013,0 hPa 0,0 l/m 0 min 0 min 0 W/m 16,7 km/h (3 Bft)
17.07.2015 00:48 22,8 C 20,6 C 75 % 0 lf 1013,0 hPa 0,0 l/m 0 min 0 min 0 W/m 10,5 km/h (2 Bft)
17.07.2015 00:50 22,8 C 20,6 C 75 % 0 lf 1013,1 hPa 0,0 l/m 0 min 0 min 0 W/m 18,8 km/h (3 Bft)
17.07.2015 00:52 22,8 C 20,6 C 75 % 0 lf 1013,2 hPa 0,0 l/m 0 min 0 min 0 W/m 6,3 km/h (2 Bft)
17.07.2015 00:54 22,8 C 20,6 C 75 % 0 lf 1013,2 hPa 0,0 l/m 0 min 0 min 0 W/m 14,6 km/h (3 Bft)
17.07.2015 00:56 22,7 C 20,6 C 75 % 0 lf 1013,2 hPa 0,0 l/m 0 min 0 min 0 W/m 10,5 km/h (2 Bft)
17.07.2015 00:58 22,7 C 20,6 C 75 % 0 lf 1013,2 hPa 0,0 l/m 0 min 0 min 0 W/m 8,4 km/h (2 Bft)
17.07.2015 01:00 22,7 C 20,6 C 75 % 0 lf 1013,2 hPa 0,0 l/m 0 min 0 min 0 W/m 12,6 km/h (3 Bft)
17.07.2015 01:02 22,7 C 20,6 C 75 % 0 lf 1013,2 hPa 0,0 l/m 0 min 0 min 0 W/m 8,4 km/h (2 Bft)
17.07.2015 01:04 22,7 C 20,6 C 75 % 0 lf 1013,2 hPa 0,0 l/m 0 min 0 min 0 W/m 14,6 km/h (3 Bft)
17.07.2015 01:06 22,7 C 20,6 C 75 % 0 lf 1013,2 hPa 0,0 l/m 0 min 0 min 0 W/m 6,3 km/h (2 Bft)
17.07.2015 01:08 22,7 C 20,6 C 75 % 0 lf 1013,2 hPa 0,0 l/m 0 min 0 min 0 W/m 10,5 km/h (2 Bft)
17.07.2015 01:10 22,7 C 20,6 C 75 % 0 lf 1013,1 hPa 0,0 l/m 0 min 0 min 0 W/m 8,4 km/h (2 Bft)
17.07.2015 01:12 22,6 C 20,6 C 75 % 0 lf 1013,0 hPa 0,0 l/m 0 min 0 min 0 W/m 14,6 km/h (3 Bft)
17.07.2015 01:14 22,6 C 20,6 C 75 % 0 lf 1013,0 hPa 0,0 l/m 0 min 0 min 0 W/m 6,3 km/h (2 Bft)
17.07.2015 01:16 22,6 C 20,6 C 75 % 0 lf 1013,0 hPa 0,0 l/m 0 min 0 min 0 W/m 10,5 km/h (2 Bft)
17.07.2015 01:18 22,6 C 20,6 C 75 % 0 lf 1013,0 hPa 0,0 l/m 0 min 0 min 0 W/m 10,5 km/h (2 Bft)
17.07.2015 01:20 22,6 C 20,6 C 75 % 0 lf 1013,0 hPa 0,0 l/m 0 min 0 min 0 W/m 12,6 km/h (3 Bft)
17.07.2015 01:22 22,6 C 20,6 C 76 % 0 lf 1013,0 hPa 0,0 l/m 0 min 0 min 0 W/m 12,6 km/h (3 Bft)
17.07.2015 01:24 22,6 C 20,6 C 76 % 0 lf 1013,0 hPa 0,0 l/m 0 min 0 min 0 W/m 14,6 km/h (3 Bft)
17.07.2015 01:26 22,5 C 20,6 C 76 % 0 lf 1013,0 hPa 0,0 l/m 0 min 0 min 0 W/m 10,5 km/h (2 Bft)
17.07.2015 01:28 22,5 C 20,6 C 76 % 0 lf 1013,0 hPa 0,0 l/m 0 min 0 min 0 W/m 14,6 km/h (3 Bft)
17.07.2015 01:30 22,4 C 20,6 C 76 % 0 lf 1012,8 hPa 0,0 l/m 0 min 0 min 0 W/m 16,7 km/h (3 Bft)
17.07.2015 01:32 22,4 C 20,6 C 77 % 0 lf 1012,8 hPa 0,0 l/m 0 min 0 min 0 W/m 10,5 km/h (2 Bft)
17.07.2015 01:34 22,4 C 20,0 C 77 % 0 lf 1012,9 hPa 0,0 l/m 0 min 0 min 0 W/m 6,3 km/h (2 Bft)
17.07.2015 01:36 22,4 C 20,0 C 77 % 0 lf 1012,9 hPa 0,0 l/m 0 min 0 min 0 W/m 6,3 km/h (2 Bft)
17.07.2015 01:38 22,3 C 20,0 C 77 % 0 lf 1012,9 hPa 0,0 l/m 0 min 0 min 0 W/m 12,6 km/h (3 Bft)
17.07.2015 01:40 22,3 C 20,0 C 77 % 0 lf 1013,0 hPa 0,0 l/m 0 min 0 min 0 W/m 12,6 km/h (3 Bft)
17.07.2015 01:42 22,3 C 20,0 C 77 % 0 lf 1012,9 hPa 0,0 l/m 0 min 0 min 0 W/m 10,5 km/h (2 Bft)
17.07.2015 01:44 22,3 C 20,0 C 77 % 0 lf 1012,9 hPa 0,0 l/m 0 min 0 min 0 W/m 8,4 km/h (2 Bft)
17.07.2015 01:46 22,2 C 20,0 C 77 % 0 lf 1012,7 hPa 0,0 l/m 0 min 0 min 0 W/m 14,6 km/h (3 Bft)
17.07.2015 01:48 22,2 C 20,0 C 77 % 0 lf 1012,7 hPa 0,0 l/m 0 min 2 min 0 W/m 10,5 km/h (2 Bft)
17.07.2015 01:50 22,2 C 20,6 C 77 % 0 lf 1012,6 hPa 0,0 l/m 0 min 2 min 0 W/m 8,4 km/h (2 Bft)
17.07.2015 01:52 22,2 C 20,0 C 77 % 0 lf 1012,7 hPa 0,0 l/m 0 min 2 min 0 W/m 16,7 km/h (3 Bft)
17.07.2015 01:54 22,2 C 20,0 C 77 % 0 lf 1012,7 hPa 0,0 l/m 0 min 0 min 0 W/m 6,3 km/h (2 Bft)
17.07.2015 01:56 22,2 C 20,0 C 77 % 0 lf 1012,7 hPa 0,0 l/m 0 min 0 min 0 W/m 8,4 km/h (2 Bft)
17.07.2015 01:58 22,1 C 20,6 C 77 % 0 lf 1012,9 hPa 0,0 l/m 0 min 0 min 0 W/m 8,4 km/h (2 Bft)
17.07.2015 02:00 22,1 C 20,6 C 77 % 0 lf 1013,0 hPa 0,0 l/m 0 min 0 min 0 W/m 10,5 km/h (2 Bft)
17.07.2015 02:02 22,1 C 20,6 C 77 % 0 lf 1013,0 hPa 0,0 l/m 0 min 0 min 0 W/m 4,2 km/h (1 Bft)
17.07.2015 02:04 22,1 C 20,0 C 77 % 0 lf 1013,0 hPa 0,0 l/m 0 min 0 min 0 W/m 8,4 km/h (2 Bft)
17.07.2015 02:06 22,1 C 20,0 C 77 % 0 lf 1012,8 hPa 0,0 l/m 0 min 0 min 0 W/m 6,3 km/h (2 Bft)
17.07.2015 02:08 22,1 C 20,0 C 77 % 0 lf 1012,8 hPa 0,0 l/m 0 min 0 min 0 W/m 6,3 km/h (2 Bft)
17.07.2015 02:10 22,1 C 20,0 C 78 % 3 lf 1012,6 hPa 0,0 l/m 0 min 2 min 0 W/m 8,4 km/h (2 Bft)
17.07.2015 02:12 22,1 C 20,0 C 78 % 0 lf 1012,5 hPa 0,0 l/m 0 min 2 min 0 W/m 10,5 km/h (2 Bft)
17.07.2015 02:14 22,1 C 19,4 C 78 % 0 lf 1012,3 hPa 0,0 l/m 0 min 2 min 0 W/m 6,3 km/h (2 Bft)
17.07.2015 02:16 22,1 C 19,4 C 78 % 0 lf 1012,2 hPa 0,0 l/m 0 min 0 min 0 W/m 10,5 km/h (2 Bft)
17.07.2015 02:18 22,0 C 19,4 C 78 % 0 lf 1012,2 hPa 0,0 l/m 0 min 0 min 0 W/m 10,5 km/h (2 Bft)
17.07.2015 02:20 22,0 C 19,4 C 78 % 0 lf 1012,1 hPa 0,0 l/m 0 min 0 min 0 W/m 12,6 km/h (3 Bft)
17.07.2015 02:22 22,0 C 19,4 C 78 % 0 lf 1012,1 hPa 0,0 l/m 0 min 0 min 0 W/m 14,6 km/h (3 Bft)
17.07.2015 02:24 21,9 C 19,4 C 78 % 0 lf 1011,9 hPa 0,0 l/m 0 min 0 min 0 W/m 10,5 km/h (2 Bft)
17.07.2015 02:26 21,9 C 19,4 C 78 % 0 lf 1012,1 hPa 0,0 l/m 0 min 0 min 0 W/m 12,6 km/h (3 Bft)
17.07.2015 02:28 21,9 C 19,4 C 79 % 0 lf 1012,1 hPa 0,0 l/m 0 min 0 min 0 W/m 6,3 km/h (2 Bft)
17.07.2015 02:30 21,9 C 19,4 C 79 % 0 lf 1012,2 hPa 0,0 l/m 0 min 0 min 0 W/m 14,6 km/h (3 Bft)
17.07.2015 02:32 21,9 C 20,0 C 79 % 0 lf 1012,2 hPa 0,0 l/m 0 min 0 min 0 W/m 12,6 km/h (3 Bft)
17.07.2015 02:34 21,8 C 20,0 C 79 % 0 lf 1012,2 hPa 0,0 l/m 0 min 0 min 0 W/m 12,6 km/h (3 Bft)
17.07.2015 02:36 21,8 C 20,0 C 79 % 0 lf 1012,0 hPa 0,0 l/m 0 min 0 min 0 W/m 14,6 km/h (3 Bft)
17.07.2015 02:38 21,8 C 19,4 C 79 % 13 lf 1011,9 hPa 0,0 l/m 0 min 2 min 0 W/m 12,6 km/h (3 Bft)
17.07.2015 02:40 21,8 C 18,9 C 80 % 15 lf 1011,9 hPa 0,0 l/m 0 min 2 min 0 W/m 10,5 km/h (2 Bft)
17.07.2015 02:42 21,8 C 18,3 C 80 % 15 lf 1012,1 hPa 0,0 l/m 0 min 2 min 0 W/m 14,6 km/h (3 Bft)
17.07.2015 02:44 21,8 C 17,8 C 81 % 15 lf 1012,0 hPa 0,0 l/m 0 min 2 min 0 W/m 10,5 km/h (2 Bft)
17.07.2015 02:46 21,8 C 17,8 C 81 % 15 lf 1012,0 hPa 0,0 l/m 0 min 2 min 0 W/m 10,5 km/h (2 Bft)
17.07.2015 02:48 21,7 C 17,8 C 81 % 15 lf 1011,9 hPa 0,0 l/m 0 min 0 min 0 W/m 10,5 km/h (2 Bft)
17.07.2015 02:50 21,7 C 17,8 C 82 % 15 lf 1012,1 hPa 0,0 l/m 0 min 0 min 0 W/m 14,6 km/h (3 Bft)
17.07.2015 02:52 21,7 C 17,8 C 82 % 15 lf 1012,0 hPa 0,0 l/m 0 min 0 min 0 W/m 10,5 km/h (2 Bft)
17.07.2015 02:54 21,7 C 17,8 C 82 % 15 lf 1012,0 hPa 0,0 l/m 0 min 0 min 0 W/m 10,5 km/h (2 Bft)
17.07.2015 02:56 21,6 C 17,8 C 82 % 15 lf 1011,9 hPa 0,0 l/m 0 min 0 min 0 W/m 10,5 km/h (2 Bft)
17.07.2015 02:58 21,6 C 17,8 C 82 % 11 lf 1011,8 hPa 0,0 l/m 0 min 0 min 0 W/m 14,6 km/h (3 Bft)
17.07.2015 03:00 21,6 C 17,8 C 82 % 3 lf 1011,7 hPa 0,0 l/m 0 min 0 min 0 W/m 8,4 km/h (2 Bft)
17.07.2015 03:02 21,5 C 17,8 C 83 % 0 lf 1011,7 hPa 0,0 l/m 0 min 2 min 0 W/m 16,7 km/h (3 Bft)
17.07.2015 03:04 21,4 C 17,8 C 83 % 0 lf 1011,6 hPa 0,0 l/m 0 min 2 min 0 W/m 10,5 km/h (2 Bft)
17.07.2015 03:06 21,4 C 17,8 C 83 % 0 lf 1011,6 hPa 0,0 l/m 0 min 0 min 0 W/m 14,6 km/h (3 Bft)
17.07.2015 03:08 21,3 C 17,8 C 83 % 0 lf 1011,6 hPa 0,0 l/m 0 min 0 min 0 W/m 14,6 km/h (3 Bft)
17.07.2015 03:10 21,3 C 17,8 C 83 % 0 lf 1011,5 hPa 0,0 l/m 0 min 0 min 0 W/m 14,6 km/h (3 Bft)
17.07.2015 03:12 21,3 C 17,8 C 83 % 0 lf 1011,5 hPa 0,0 l/m 0 min 0 min 0 W/m 10,5 km/h (2 Bft)
17.07.2015 03:14 21,3 C 18,3 C 83 % 0 lf 1011,5 hPa 0,0 l/m 0 min 0 min 0 W/m 14,6 km/h (3 Bft)
17.07.2015 03:16 21,2 C 18,3 C 83 % 0 lf 1011,5 hPa 0,0 l/m 0 min 0 min 0 W/m 12,6 km/h (3 Bft)
17.07.2015 03:18 21,2 C 18,3 C 83 % 0 lf 1011,4 hPa 0,0 l/m 0 min 0 min 0 W/m 12,6 km/h (3 Bft)
17.07.2015 03:20 21,2 C 18,3 C 84 % 0 lf 1011,4 hPa 0,0 l/m 0 min 0 min 0 W/m 10,5 km/h (2 Bft)
17.07.2015 03:22 21,1 C 18,3 C 84 % 0 lf 1011,4 hPa 0,0 l/m 0 min 0 min 0 W/m 8,4 km/h (2 Bft)
17.07.2015 03:24 21,1 C 18,3 C 84 % 0 lf 1011,3 hPa 0,0 l/m 0 min 0 min 0 W/m 8,4 km/h (2 Bft)
17.07.2015 03:26 21,1 C 18,3 C 84 % 0 lf 1011,2 hPa 0,0 l/m 0 min 0 min 0 W/m 14,6 km/h (3 Bft)
17.07.2015 03:28 21,1 C 18,3 C 84 % 0 lf 1011,1 hPa 0,0 l/m 0 min 0 min 0 W/m 12,6 km/h (3 Bft)
17.07.2015 03:30 21,0 C 18,9 C 84 % 0 lf 1011,0 hPa 0,0 l/m 0 min 0 min 0 W/m 10,5 km/h (2 Bft)
17.07.2015 03:32 21,0 C 18,9 C 84 % 0 lf 1010,9 hPa 0,0 l/m 0 min 0 min 0 W/m 10,5 km/h (2 Bft)
17.07.2015 03:34 21,0 C 18,3 C 85 % 0 lf 1011,0 hPa 0,0 l/m 0 min 0 min 0 W/m 8,4 km/h (2 Bft)
17.07.2015 03:36 21,0 C 18,3 C 85 % 0 lf 1010,9 hPa 0,0 l/m 0 min 0 min 0 W/m 10,5 km/h (2 Bft)
17.07.2015 03:38 20,9 C 18,9 C 85 % 0 lf 1010,8 hPa 0,0 l/m 0 min 0 min 0 W/m 14,6 km/h (3 Bft)
17.07.2015 03:40 20,9 C 18,9 C 85 % 0 lf 1010,8 hPa 0,0 l/m 0 min 0 min 0 W/m 10,5 km/h (2 Bft)
17.07.2015 03:42 20,9 C 18,9 C 85 % 0 lf 1010,8 hPa 0,0 l/m 0 min 0 min 0 W/m 10,5 km/h (2 Bft)
17.07.2015 03:44 20,9 C 18,9 C 85 % 0 lf 1010,8 hPa 0,0 l/m 0 min 0 min 0 W/m 12,6 km/h (3 Bft)
17.07.2015 03:46 20,9 C 18,9 C 85 % 0 lf 1010,8 hPa 0,0 l/m 0 min 0 min 0 W/m 10,5 km/h (2 Bft)
17.07.2015 03:48 20,8 C 18,9 C 85 % 0 lf 1010,8 hPa 0,0 l/m 0 min 0 min 0 W/m 6,3 km/h (2 Bft)
17.07.2015 03:50 20,8 C 18,9 C 85 % 0 lf 1010,8 hPa 0,0 l/m 0 min 0 min 0 W/m 6,3 km/h (2 Bft)
17.07.2015 03:52 20,8 C 18,9 C 85 % 0 lf 1010,8 hPa 0,0 l/m 0 min 0 min 0 W/m 8,4 km/h (2 Bft)
17.07.2015 03:54 20,8 C 18,9 C 86 % 0 lf 1010,7 hPa 0,0 l/m 0 min 0 min 0 W/m 10,5 km/h (2 Bft)
17.07.2015 03:56 20,8 C 18,9 C 86 % 0 lf 1010,7 hPa 0,0 l/m 0 min 0 min 0 W/m 10,5 km/h (2 Bft)
17.07.2015 03:58 20,8 C 18,9 C 86 % 0 lf 1010,6 hPa 0,0 l/m 0 min 0 min 0 W/m 10,5 km/h (2 Bft)
17.07.2015 04:00 20,8 C 18,9 C 86 % 0 lf 1010,6 hPa 0,0 l/m 0 min 0 min 0 W/m 8,4 km/h (2 Bft)
17.07.2015 04:02 20,8 C 18,9 C 86 % 0 lf 1010,6 hPa 0,0 l/m 0 min 0 min 0 W/m 14,6 km/h (3 Bft)
17.07.2015 04:04 20,8 C 18,9 C 86 % 0 lf 1010,6 hPa 0,0 l/m 0 min 0 min 0 W/m 14,6 km/h (3 Bft)
17.07.2015 04:06 20,8 C 19,4 C 86 % 0 lf 1010,5 hPa 0,0 l/m 0 min 0 min 0 W/m 10,5 km/h (2 Bft)
17.07.2015 04:08 20,8 C 19,4 C 86 % 0 lf 1010,5 hPa 0,0 l/m 0 min 0 min 0 W/m 14,6 km/h (3 Bft)
17.07.2015 04:10 20,8 C 19,4 C 86 % 0 lf 1010,5 hPa 0,0 l/m 0 min 0 min 0 W/m 10,5 km/h (2 Bft)
17.07.2015 04:12 20,8 C 19,4 C 86 % 0 lf 1010,4 hPa 0,0 l/m 0 min 0 min 0 W/m 12,6 km/h (3 Bft)
17.07.2015 04:14 20,8 C 19,4 C 86 % 0 lf 1010,3 hPa 0,0 l/m 0 min 0 min 0 W/m 16,7 km/h (3 Bft)
17.07.2015 04:16 20,9 C 19,4 C 86 % 0 lf 1010,3 hPa 0,0 l/m 0 min 0 min 0 W/m 12,6 km/h (3 Bft)
17.07.2015 04:18 20,9 C 19,4 C 86 % 0 lf 1010,3 hPa 0,0 l/m 0 min 0 min 0 W/m 10,5 km/h (2 Bft)
17.07.2015 04:20 20,9 C 19,4 C 86 % 0 lf 1010,3 hPa 0,0 l/m 0 min 0 min 0 W/m 12,6 km/h (3 Bft)
17.07.2015 04:22 20,9 C 19,4 C 86 % 0 lf 1010,4 hPa 0,0 l/m 0 min 0 min 0 W/m 8,4 km/h (2 Bft)
17.07.2015 04:24 20,9 C 18,9 C 86 % 0 lf 1010,6 hPa 0,0 l/m 0 min 0 min 0 W/m 8,4 km/h (2 Bft)
17.07.2015 04:26 20,9 C 19,4 C 86 % 0 lf 1010,8 hPa 0,0 l/m 0 min 0 min 0 W/m 8,4 km/h (2 Bft)
17.07.2015 04:28 20,9 C 19,4 C 86 % 0 lf 1010,7 hPa 0,0 l/m 0 min 2 min 0 W/m 8,4 km/h (2 Bft)
17.07.2015 04:30 20,9 C 18,9 C 86 % 0 lf 1010,5 hPa 0,0 l/m 0 min 2 min 0 W/m 14,6 km/h (3 Bft)
17.07.2015 04:32 20,9 C 18,9 C 86 % 0 lf 1010,4 hPa 0,0 l/m 0 min 0 min 0 W/m 14,6 km/h (3 Bft)
17.07.2015 04:34 20,9 C 18,9 C 86 % 0 lf 1010,4 hPa 0,0 l/m 0 min 0 min 0 W/m 12,6 km/h (3 Bft)
17.07.2015 04:36 20,9 C 18,9 C 86 % 0 lf 1010,3 hPa 0,0 l/m 0 min 0 min 0 W/m 14,6 km/h (3 Bft)
17.07.2015 04:38 20,9 C 19,4 C 86 % 0 lf 1010,2 hPa 0,0 l/m 0 min 0 min 0 W/m 16,7 km/h (3 Bft)
17.07.2015 04:40 20,9 C 19,4 C 86 % 0 lf 1010,2 hPa 0,0 l/m 0 min 0 min 0 W/m 18,8 km/h (3 Bft)
17.07.2015 04:42 20,9 C 19,4 C 86 % 0 lf 1010,2 hPa 0,0 l/m 0 min 0 min 0 W/m 12,6 km/h (3 Bft)
17.07.2015 04:44 20,9 C 19,4 C 86 % 0 lf 1010,2 hPa 0,0 l/m 0 min 0 min 0 W/m 10,5 km/h (2 Bft)
17.07.2015 04:46 20,9 C 19,4 C 86 % 0 lf 1010,1 hPa 0,0 l/m 0 min 0 min 0 W/m 12,6 km/h (3 Bft)
17.07.2015 04:48 21,0 C 19,4 C 86 % 0 lf 1010,1 hPa 0,0 l/m 0 min 0 min 0 W/m 12,6 km/h (3 Bft)
17.07.2015 04:50 21,0 C 19,4 C 86 % 0 lf 1010,0 hPa 0,0 l/m 0 min 0 min 0 W/m 18,8 km/h (3 Bft)
17.07.2015 04:52 21,0 C 19,4 C 86 % 0 lf 1010,0 hPa 0,0 l/m 0 min 0 min 0 W/m 16,7 km/h (3 Bft)
17.07.2015 04:54 21,0 C 20,0 C 86 % 0 lf 1010,0 hPa 0,0 l/m 0 min 0 min 0 W/m 20,9 km/h (4 Bft)
17.07.2015 04:56 21,0 C 20,0 C 86 % 0 lf 1009,9 hPa 0,0 l/m 0 min 0 min 0 W/m 16,7 km/h (3 Bft)
17.07.2015 04:58 21,1 C 20,0 C 86 % 0 lf 1009,8 hPa 0,0 l/m 0 min 0 min 0 W/m 20,9 km/h (4 Bft)
17.07.2015 05:00 21,1 C 20,0 C 86 % 0 lf 1009,9 hPa 0,0 l/m 0 min 0 min 0 W/m 18,8 km/h (3 Bft)
17.07.2015 05:02 21,2 C 20,0 C 85 % 0 lf 1009,9 hPa 0,0 l/m 0 min 0 min 0 W/m 18,8 km/h (3 Bft)
17.07.2015 05:04 21,2 C 20,0 C 85 % 0 lf 1009,7 hPa 0,0 l/m 0 min 0 min 0 W/m 23,0 km/h (4 Bft)
17.07.2015 05:06 21,2 C 20,0 C 85 % 0 lf 1009,7 hPa 0,0 l/m 0 min 0 min 0 W/m 20,9 km/h (4 Bft)
17.07.2015 05:08 21,3 C 20,0 C 85 % 0 lf 1009,5 hPa 0,0 l/m 0 min 0 min 0 W/m 18,8 km/h (3 Bft)
17.07.2015 05:10 21,3 C 20,0 C 84 % 0 lf 1009,6 hPa 0,0 l/m 0 min 0 min 0 W/m 18,8 km/h (3 Bft)
17.07.2015 05:12 21,3 C 20,0 C 84 % 0 lf 1009,5 hPa 0,0 l/m 0 min 0 min 0 W/m 16,7 km/h (3 Bft)
17.07.2015 05:14 21,4 C 20,0 C 84 % 0 lf 1009,6 hPa 0,0 l/m 0 min 0 min 0 W/m 16,7 km/h (3 Bft)
17.07.2015 05:16 21,4 C 20,0 C 84 % 0 lf 1009,5 hPa 0,0 l/m 0 min 0 min 0 W/m 23,0 km/h (4 Bft)
17.07.2015 05:18 21,5 C 20,0 C 84 % 0 lf 1009,5 hPa 0,0 l/m 0 min 0 min 0 W/m 23,0 km/h (4 Bft)
17.07.2015 05:20 21,5 C 20,0 C 84 % 0 lf 1009,5 hPa 0,0 l/m 0 min 0 min 0 W/m 18,8 km/h (3 Bft)
17.07.2015 05:22 21,6 C 20,0 C 83 % 0 lf 1009,4 hPa 0,0 l/m 0 min 0 min 0 W/m 14,6 km/h (3 Bft)
17.07.2015 05:24 21,6 C 20,0 C 83 % 0 lf 1009,4 hPa 0,0 l/m 0 min 0 min 0 W/m 18,8 km/h (3 Bft)
17.07.2015 05:26 21,6 C 20,0 C 83 % 0 lf 1009,4 hPa 0,0 l/m 0 min 0 min 0 W/m 16,7 km/h (3 Bft)
17.07.2015 05:28 21,7 C 20,0 C 82 % 0 lf 1009,4 hPa 0,0 l/m 0 min 0 min 0 W/m 18,8 km/h (3 Bft)
17.07.2015 05:30 21,7 C 20,0 C 82 % 0 lf 1009,5 hPa 0,0 l/m 0 min 0 min 0 W/m 16,7 km/h (3 Bft)
17.07.2015 05:32 21,7 C 20,0 C 82 % 0 lf 1009,5 hPa 0,0 l/m 0 min 0 min 0 W/m 10,5 km/h (2 Bft)
17.07.2015 05:34 21,7 C 20,0 C 82 % 0 lf 1009,4 hPa 0,0 l/m 0 min 0 min 0 W/m 14,6 km/h (3 Bft)
17.07.2015 05:36 21,8 C 20,0 C 82 % 0 lf 1009,5 hPa 0,0 l/m 0 min 0 min 0 W/m 16,7 km/h (3 Bft)
17.07.2015 05:38 21,8 C 20,0 C 82 % 0 lf 1009,5 hPa 0,0 l/m 0 min 0 min 0 W/m 18,8 km/h (3 Bft)
17.07.2015 05:40 21,8 C 20,6 C 81 % 0 lf 1009,5 hPa 0,0 l/m 0 min 0 min 0 W/m 16,7 km/h (3 Bft)
17.07.2015 05:42 21,9 C 20,6 C 81 % 0 lf 1009,5 hPa 0,0 l/m 0 min 0 min 0 W/m 14,6 km/h (3 Bft)
17.07.2015 05:44 21,9 C 20,6 C 81 % 0 lf 1009,4 hPa 0,0 l/m 0 min 0 min 0 W/m 14,6 km/h (3 Bft)
17.07.2015 05:46 21,9 C 20,6 C 80 % 0 lf 1009,4 hPa 0,0 l/m 0 min 0 min 3 W/m 20,9 km/h (4 Bft)
17.07.2015 05:48 22,0 C 20,6 C 80 % 0 lf 1009,5 hPa 0,0 l/m 0 min 0 min 5 W/m 16,7 km/h (3 Bft)
17.07.2015 05:50 22,1 C 20,6 C 80 % 0 lf 1009,5 hPa 0,0 l/m 0 min 0 min 5 W/m 18,8 km/h (3 Bft)
17.07.2015 05:52 22,1 C 20,6 C 79 % 0 lf 1009,5 hPa 0,0 l/m 0 min 0 min 5 W/m 18,8 km/h (3 Bft)
17.07.2015 05:54 22,2 C 20,6 C 80 % 0 lf 1009,5 hPa 0,0 l/m 0 min 2 min 5 W/m 20,9 km/h (4 Bft)
17.07.2015 05:56 22,2 C 20,6 C 79 % 1 lf 1009,5 hPa 0,0 l/m 0 min 2 min 5 W/m 14,6 km/h (3 Bft)
17.07.2015 05:58 22,3 C 20,6 C 79 % 0 lf 1009,5 hPa 0,0 l/m 0 min 0 min 5 W/m 14,6 km/h (3 Bft)
17.07.2015 06:00 22,3 C 20,6 C 79 % 0 lf 1009,5 hPa 0,0 l/m 0 min 0 min 6 W/m 18,8 km/h (3 Bft)
17.07.2015 06:02 22,3 C 20,6 C 79 % 0 lf 1009,6 hPa 0,0 l/m 0 min 0 min 7 W/m 18,8 km/h (3 Bft)
17.07.2015 06:06 22,4 C 20,6 C 78 % 0 lf 1009,7 hPa 0,0 l/m 0 min 0 min 10 W/m 27,2 km/h (4 Bft)
17.07.2015 06:08 22,4 C 20,6 C 78 % 0 lf 1009,7 hPa 0,0 l/m 0 min 0 min 12 W/m 18,8 km/h (3 Bft)
17.07.2015 06:10 22,5 C 20,6 C 78 % 0 lf 1009,9 hPa 0,0 l/m 0 min 0 min 14 W/m 18,8 km/h (3 Bft)
17.07.2015 06:12 22,5 C 20,6 C 77 % 0 lf 1009,9 hPa 0,0 l/m 0 min 0 min 16 W/m 18,8 km/h (3 Bft)
17.07.2015 06:14 22,6 C 20,6 C 77 % 0 lf 1009,9 hPa 0,0 l/m 0 min 0 min 17 W/m 18,8 km/h (3 Bft)
17.07.2015 06:16 22,6 C 20,6 C 77 % 0 lf 1009,9 hPa 0,0 l/m 0 min 0 min 18 W/m 18,8 km/h (3 Bft)
17.07.2015 06:18 22,6 C 20,6 C 77 % 0 lf 1009,9 hPa 0,0 l/m 0 min 0 min 19 W/m 16,7 km/h (3 Bft)
17.07.2015 06:20 22,6 C 20,6 C 77 % 0 lf 1009,8 hPa 0,0 l/m 0 min 0 min 21 W/m 14,6 km/h (3 Bft)
17.07.2015 06:22 22,6 C 20,6 C 77 % 0 lf 1010,0 hPa 0,0 l/m 0 min 0 min 23 W/m 12,6 km/h (3 Bft)
17.07.2015 06:24 22,6 C 20,6 C 77 % 0 lf 1009,9 hPa 0,0 l/m 0 min 0 min 25 W/m 12,6 km/h (3 Bft)
17.07.2015 06:26 22,7 C 20,6 C 77 % 0 lf 1009,8 hPa 0,0 l/m 0 min 0 min 27 W/m 16,7 km/h (3 Bft)
17.07.2015 06:28 22,7 C 20,6 C 77 % 0 lf 1009,8 hPa 0,0 l/m 0 min 0 min 30 W/m 12,6 km/h (3 Bft)
17.07.2015 06:30 22,7 C 20,6 C 77 % 0 lf 1009,8 hPa 0,0 l/m 0 min 0 min 32 W/m 14,6 km/h (3 Bft)
17.07.2015 06:32 22,7 C 20,6 C 77 % 0 lf 1009,9 hPa 0,0 l/m 0 min 0 min 33 W/m 14,6 km/h (3 Bft)
17.07.2015 06:34 22,7 C 20,6 C 77 % 0 lf 1009,9 hPa 0,0 l/m 0 min 0 min 34 W/m 16,7 km/h (3 Bft)
17.07.2015 06:36 22,7 C 20,6 C 76 % 0 lf 1009,9 hPa 0,0 l/m 0 min 0 min 37 W/m 12,6 km/h (3 Bft)
17.07.2015 06:38 22,7 C 20,6 C 77 % 0 lf 1009,9 hPa 0,0 l/m 0 min 0 min 38 W/m 12,6 km/h (3 Bft)
17.07.2015 06:40 22,6 C 20,6 C 77 % 0 lf 1009,9 hPa 0,0 l/m 0 min 0 min 39 W/m 10,5 km/h (2 Bft)
17.07.2015 06:42 22,6 C 20,6 C 77 % 0 lf 1009,9 hPa 0,0 l/m 0 min 0 min 40 W/m 8,4 km/h (2 Bft)
17.07.2015 06:44 22,6 C 20,6 C 77 % 0 lf 1009,9 hPa 0,0 l/m 0 min 0 min 42 W/m 8,4 km/h (2 Bft)
17.07.2015 06:46 22,6 C 20,6 C 76 % 0 lf 1010,0 hPa 0,0 l/m 0 min 0 min 44 W/m 8,4 km/h (2 Bft)
17.07.2015 06:48 22,6 C 20,6 C 76 % 0 lf 1010,0 hPa 0,0 l/m 0 min 0 min 48 W/m 12,6 km/h (3 Bft)
17.07.2015 06:50 22,6 C 20,6 C 76 % 0 lf 1010,1 hPa 0,0 l/m 0 min 0 min 50 W/m 10,5 km/h (2 Bft)
17.07.2015 06:52 22,6 C 20,6 C 77 % 0 lf 1010,1 hPa 0,0 l/m 0 min 0 min 53 W/m 14,6 km/h (3 Bft)
17.07.2015 06:54 22,6 C 20,6 C 77 % 0 lf 1010,1 hPa 0,0 l/m 0 min 0 min 56 W/m 10,5 km/h (2 Bft)
17.07.2015 06:56 22,6 C 20,6 C 77 % 0 lf 1010,2 hPa 0,0 l/m 0 min 0 min 62 W/m 12,6 km/h (3 Bft)
17.07.2015 06:58 22,6 C 20,6 C 77 % 0 lf 1010,1 hPa 0,0 l/m 0 min 0 min 68 W/m 14,6 km/h (3 Bft)
17.07.2015 07:00 22,5 C 20,6 C 77 % 0 lf 1010,1 hPa 0,0 l/m 0 min 0 min 73 W/m 8,4 km/h (2 Bft)
17.07.2015 07:02 22,5 C 20,6 C 77 % 0 lf 1010,2 hPa 0,0 l/m 0 min 0 min 74 W/m 12,6 km/h (3 Bft)
17.07.2015 07:04 22,5 C 20,6 C 77 % 0 lf 1010,1 hPa 0,0 l/m 0 min 0 min 80 W/m 10,5 km/h (2 Bft)
17.07.2015 07:06 22,4 C 20,6 C 77 % 0 lf 1010,1 hPa 0,0 l/m 0 min 0 min 89 W/m 6,3 km/h (2 Bft)
17.07.2015 07:08 22,4 C 20,6 C 77 % 0 lf 1010,2 hPa 0,0 l/m 0 min 0 min 92 W/m 8,4 km/h (2 Bft)
17.07.2015 07:10 22,4 C 20,6 C 77 % 0 lf 1010,2 hPa 0,0 l/m 0 min 0 min 93 W/m 10,5 km/h (2 Bft)
17.07.2015 07:12 22,4 C 20,6 C 77 % 0 lf 1010,2 hPa 0,0 l/m 0 min 0 min 84 W/m 10,5 km/h (2 Bft)
17.07.2015 07:14 22,4 C 20,6 C 77 % 0 lf 1010,2 hPa 0,0 l/m 0 min 0 min 103 W/m 6,3 km/h (2 Bft)
17.07.2015 07:16 22,4 C 20,6 C 77 % 0 lf 1010,3 hPa 0,0 l/m 2 min 0 min 118 W/m 8,4 km/h (2 Bft)
17.07.2015 07:18 22,4 C 20,6 C 77 % 0 lf 1010,3 hPa 0,0 l/m 2 min 0 min 111 W/m 12,6 km/h (3 Bft)
17.07.2015 07:20 22,4 C 20,6 C 77 % 0 lf 1010,3 hPa 0,0 l/m 0 min 0 min 109 W/m 14,6 km/h (3 Bft)
17.07.2015 07:22 22,4 C 20,6 C 77 % 0 lf 1010,3 hPa 0,0 l/m 0 min 0 min 103 W/m 10,5 km/h (2 Bft)
17.07.2015 07:24 22,5 C 20,6 C 77 % 0 lf 1010,3 hPa 0,0 l/m 0 min 0 min 93 W/m 10,5 km/h (2 Bft)
17.07.2015 07:26 22,5 C 20,6 C 77 % 0 lf 1010,3 hPa 0,0 l/m 0 min 0 min 95 W/m 14,6 km/h (3 Bft)
17.07.2015 07:28 22,5 C 20,6 C 77 % 0 lf 1010,3 hPa 0,0 l/m 0 min 0 min 101 W/m 10,5 km/h (2 Bft)
17.07.2015 07:30 22,5 C 20,6 C 77 % 0 lf 1010,4 hPa 0,0 l/m 0 min 0 min 105 W/m 10,5 km/h (2 Bft)
17.07.2015 07:32 22,5 C 20,6 C 76 % 0 lf 1010,4 hPa 0,0 l/m 2 min 0 min 136 W/m 10,5 km/h (2 Bft)
17.07.2015 07:34 22,5 C 20,6 C 76 % 0 lf 1010,4 hPa 0,0 l/m 2 min 0 min 147 W/m 10,5 km/h (2 Bft)
17.07.2015 07:36 22,6 C 20,6 C 76 % 0 lf 1010,4 hPa 0,0 l/m 0 min 0 min 130 W/m 12,6 km/h (3 Bft)
17.07.2015 07:38 22,6 C 20,6 C 76 % 0 lf 1010,4 hPa 0,0 l/m 2 min 0 min 134 W/m 10,5 km/h (2 Bft)
17.07.2015 07:40 22,6 C 20,6 C 76 % 0 lf 1010,4 hPa 0,0 l/m 2 min 0 min 165 W/m 10,5 km/h (2 Bft)
17.07.2015 07:42 22,6 C 20,6 C 76 % 0 lf 1010,4 hPa 0,0 l/m 2 min 0 min 156 W/m 12,6 km/h (3 Bft)
17.07.2015 07:44 22,6 C 20,6 C 76 % 0 lf 1010,5 hPa 0,0 l/m 0 min 0 min 138 W/m 6,3 km/h (2 Bft)
17.07.2015 07:46 22,6 C 20,6 C 76 % 0 lf 1010,6 hPa 0,0 l/m 0 min 0 min 143 W/m 8,4 km/h (2 Bft)
17.07.2015 07:48 22,6 C 20,6 C 77 % 0 lf 1010,5 hPa 0,0 l/m 0 min 0 min 139 W/m 6,3 km/h (2 Bft)
17.07.2015 07:50 22,7 C 20,6 C 77 % 0 lf 1010,5 hPa 0,0 l/m 0 min 0 min 146 W/m 10,5 km/h (2 Bft)
17.07.2015 07:52 22,7 C 20,6 C 77 % 0 lf 1010,5 hPa 0,0 l/m 2 min 0 min 163 W/m 6,3 km/h (2 Bft)
17.07.2015 07:54 22,7 C 20,6 C 77 % 0 lf 1010,5 hPa 0,0 l/m 2 min 0 min 170 W/m 6,3 km/h (2 Bft)
17.07.2015 07:56 22,7 C 20,6 C 77 % 0 lf 1010,6 hPa 0,0 l/m 2 min 0 min 183 W/m 6,3 km/h (2 Bft)
17.07.2015 07:58 22,7 C 20,6 C 76 % 0 lf 1010,6 hPa 0,0 l/m 2 min 0 min 175 W/m 10,5 km/h (2 Bft)
17.07.2015 08:00 22,8 C 20,6 C 76 % 0 lf 1010,6 hPa 0,0 l/m 2 min 0 min 175 W/m 8,4 km/h (2 Bft)
17.07.2015 08:02 22,8 C 20,6 C 76 % 0 lf 1010,7 hPa 0,0 l/m 0 min 0 min 155 W/m 12,6 km/h (3 Bft)
17.07.2015 08:04 22,8 C 20,6 C 75 % 0 lf 1010,6 hPa 0,0 l/m 0 min 0 min 146 W/m 12,6 km/h (3 Bft)
17.07.2015 08:06 22,8 C 20,6 C 75 % 0 lf 1010,6 hPa 0,0 l/m 0 min 0 min 130 W/m 10,5 km/h (2 Bft)
17.07.2015 08:08 22,9 C 20,6 C 75 % 0 lf 1010,7 hPa 0,0 l/m 0 min 0 min 134 W/m 6,3 km/h (2 Bft)
17.07.2015 08:10 22,9 C 20,6 C 75 % 0 lf 1010,7 hPa 0,0 l/m 2 min 0 min 177 W/m 6,3 km/h (2 Bft)
17.07.2015 08:12 22,9 C 20,6 C 75 % 0 lf 1010,8 hPa 0,0 l/m 2 min 0 min 233 W/m 4,2 km/h (1 Bft)
17.07.2015 08:14 23,0 C 20,6 C 76 % 0 lf 1010,8 hPa 0,0 l/m 2 min 0 min 267 W/m 6,3 km/h (2 Bft)
17.07.2015 08:16 23,0 C 20,6 C 76 % 0 lf 1010,8 hPa 0,0 l/m 2 min 0 min 299 W/m 6,3 km/h (2 Bft)
17.07.2015 08:18 23,1 C 21,1 C 76 % 0 lf 1010,8 hPa 0,0 l/m 2 min 0 min 317 W/m 6,3 km/h (2 Bft)
17.07.2015 08:20 23,1 C 21,1 C 76 % 0 lf 1010,8 hPa 0,0 l/m 2 min 0 min 316 W/m 6,3 km/h (2 Bft)
17.07.2015 08:22 23,2 C 21,1 C 76 % 0 lf 1010,8 hPa 0,0 l/m 2 min 0 min 270 W/m 8,4 km/h (2 Bft)
17.07.2015 08:24 23,2 C 21,1 C 76 % 0 lf 1010,8 hPa 0,0 l/m 2 min 0 min 289 W/m 10,5 km/h (2 Bft)
17.07.2015 08:26 23,2 C 21,7 C 75 % 0 lf 1010,8 hPa 0,0 l/m 2 min 0 min 261 W/m 14,6 km/h (3 Bft)
17.07.2015 08:28 23,3 C 21,7 C 74 % 0 lf 1010,8 hPa 0,0 l/m 2 min 0 min 275 W/m 16,7 km/h (3 Bft)
17.07.2015 08:30 23,4 C 21,7 C 73 % 0 lf 1010,9 hPa 0,0 l/m 2 min 0 min 313 W/m 18,8 km/h (3 Bft)
17.07.2015 08:32 23,5 C 22,2 C 71 % 0 lf 1010,8 hPa 0,0 l/m 2 min 0 min 277 W/m 18,8 km/h (3 Bft)
17.07.2015 08:34 23,6 C 22,2 C 71 % 0 lf 1010,8 hPa 0,0 l/m 2 min 0 min 292 W/m 10,5 km/h (2 Bft)
17.07.2015 08:36 23,7 C 22,2 C 72 % 0 lf 1010,9 hPa 0,0 l/m 2 min 0 min 286 W/m 16,7 km/h (3 Bft)
17.07.2015 08:38 23,8 C 22,2 C 70 % 0 lf 1010,9 hPa 0,0 l/m 2 min 0 min 300 W/m 29,3 km/h (5 Bft)
17.07.2015 08:40 23,9 C 22,8 C 70 % 0 lf 1010,9 hPa 0,0 l/m 2 min 0 min 246 W/m 25,1 km/h (4 Bft)
17.07.2015 08:42 24,1 C 22,8 C 69 % 0 lf 1010,9 hPa 0,0 l/m 2 min 0 min 225 W/m 25,1 km/h (4 Bft)
17.07.2015 08:44 24,2 C 22,8 C 69 % 0 lf 1011,0 hPa 0,0 l/m 2 min 0 min 274 W/m 16,7 km/h (3 Bft)
17.07.2015 08:46 24,4 C 22,8 C 68 % 0 lf 1011,0 hPa 0,0 l/m 2 min 0 min 291 W/m 25,1 km/h (4 Bft)
17.07.2015 08:48 24,6 C 22,8 C 68 % 0 lf 1011,0 hPa 0,0 l/m 2 min 0 min 334 W/m 33,5 km/h (5 Bft)
17.07.2015 08:50 24,8 C 23,3 C 68 % 0 lf 1011,0 hPa 0,0 l/m 2 min 0 min 391 W/m 25,1 km/h (4 Bft)
17.07.2015 08:52 24,9 C 23,3 C 67 % 0 lf 1011,0 hPa 0,0 l/m 2 min 0 min 399 W/m 31,4 km/h (5 Bft)
17.07.2015 08:54 25,1 C 23,3 C 67 % 0 lf 1011,0 hPa 0,0 l/m 2 min 0 min 419 W/m 31,4 km/h (5 Bft)
17.07.2015 08:56 25,3 C 23,3 C 67 % 0 lf 1011,1 hPa 0,0 l/m 2 min 0 min 443 W/m 20,9 km/h (4 Bft)
17.07.2015 08:58 25,4 C 23,3 C 67 % 0 lf 1011,1 hPa 0,0 l/m 2 min 0 min 442 W/m 27,2 km/h (4 Bft)
17.07.2015 09:00 25,6 C 23,3 C 66 % 0 lf 1011,1 hPa 0,0 l/m 2 min 0 min 450 W/m 29,3 km/h (5 Bft)
17.07.2015 09:02 25,8 C 23,9 C 66 % 0 lf 1011,2 hPa 0,0 l/m 2 min 0 min 425 W/m 33,5 km/h (5 Bft)
17.07.2015 09:04 25,9 C 23,9 C 66 % 0 lf 1011,3 hPa 0,0 l/m 2 min 0 min 439 W/m 37,7 km/h (5 Bft)
17.07.2015 09:06 26,0 C 23,9 C 66 % 0 lf 1011,2 hPa 0,0 l/m 2 min 0 min 452 W/m 25,1 km/h (4 Bft)
17.07.2015 09:08 26,1 C 23,9 C 66 % 0 lf 1011,2 hPa 0,0 l/m 2 min 0 min 446 W/m 18,8 km/h (3 Bft)
17.07.2015 09:10 26,2 C 23,9 C 65 % 0 lf 1011,2 hPa 0,0 l/m 2 min 0 min 467 W/m 27,2 km/h (4 Bft)
17.07.2015 09:12 26,3 C 23,9 C 66 % 0 lf 1011,3 hPa 0,0 l/m 2 min 0 min 478 W/m 25,1 km/h (4 Bft)
17.07.2015 09:14 26,4 C 23,9 C 65 % 0 lf 1011,2 hPa 0,0 l/m 2 min 0 min 482 W/m 27,2 km/h (4 Bft)
17.07.2015 09:16 26,6 C 23,9 C 65 % 0 lf 1011,2 hPa 0,0 l/m 2 min 0 min 488 W/m 29,3 km/h (5 Bft)
17.07.2015 09:18 26,7 C 23,9 C 65 % 0 lf 1011,3 hPa 0,0 l/m 2 min 0 min 493 W/m 25,1 km/h (4 Bft)
17.07.2015 09:20 26,7 C 24,4 C 65 % 0 lf 1011,3 hPa 0,0 l/m 2 min 0 min 496 W/m 31,4 km/h (5 Bft)
17.07.2015 09:22 26,8 C 24,4 C 65 % 0 lf 1011,3 hPa 0,0 l/m 2 min 0 min 500 W/m 48,1 km/h (6 Bft)
17.07.2015 09:24 26,9 C 24,4 C 64 % 0 lf 1011,4 hPa 0,0 l/m 2 min 0 min 505 W/m 31,4 km/h (5 Bft)
17.07.2015 09:26 26,9 C 24,4 C 64 % 0 lf 1011,5 hPa 0,0 l/m 2 min 0 min 511 W/m 25,1 km/h (4 Bft)
17.07.2015 09:28 27,1 C 24,4 C 64 % 0 lf 1011,5 hPa 0,0 l/m 2 min 0 min 512 W/m 37,7 km/h (5 Bft)
17.07.2015 09:30 27,1 C 24,4 C 64 % 0 lf 1011,4 hPa 0,0 l/m 2 min 0 min 516 W/m 41,8 km/h (6 Bft)
17.07.2015 09:32 27,1 C 24,4 C 63 % 0 lf 1011,5 hPa 0,0 l/m 2 min 0 min 522 W/m 39,7 km/h (6 Bft)
17.07.2015 09:34 27,2 C 24,4 C 64 % 0 lf 1011,4 hPa 0,0 l/m 2 min 0 min 527 W/m 39,7 km/h (6 Bft)
17.07.2015 09:36 27,2 C 24,4 C 64 % 0 lf 1011,4 hPa 0,0 l/m 2 min 0 min 530 W/m 27,2 km/h (4 Bft)
17.07.2015 09:38 27,3 C 25,0 C 64 % 0 lf 1011,5 hPa 0,0 l/m 2 min 0 min 532 W/m 39,7 km/h (6 Bft)
17.07.2015 09:40 27,4 C 25,0 C 64 % 0 lf 1011,5 hPa 0,0 l/m 2 min 0 min 536 W/m 23,0 km/h (4 Bft)
17.07.2015 09:42 27,5 C 25,0 C 64 % 0 lf 1011,6 hPa 0,0 l/m 2 min 0 min 540 W/m 31,4 km/h (5 Bft)
17.07.2015 09:44 27,6 C 25,0 C 63 % 0 lf 1011,7 hPa 0,0 l/m 2 min 0 min 544 W/m 39,7 km/h (6 Bft)
17.07.2015 09:46 27,6 C 25,0 C 63 % 0 lf 1011,7 hPa 0,0 l/m 2 min 0 min 551 W/m 35,6 km/h (5 Bft)
17.07.2015 09:48 27,7 C 25,0 C 63 % 0 lf 1011,7 hPa 0,0 l/m 2 min 0 min 555 W/m 18,8 km/h (3 Bft)
17.07.2015 09:50 27,7 C 25,6 C 64 % 0 lf 1011,8 hPa 0,0 l/m 2 min 0 min 557 W/m 20,9 km/h (4 Bft)
17.07.2015 09:52 27,8 C 25,6 C 64 % 0 lf 1011,8 hPa 0,0 l/m 2 min 0 min 567 W/m 33,5 km/h (5 Bft)
17.07.2015 09:54 27,8 C 25,6 C 63 % 0 lf 1011,8 hPa 0,0 l/m 2 min 0 min 571 W/m 37,7 km/h (5 Bft)
17.07.2015 09:56 27,8 C 25,6 C 62 % 0 lf 1011,8 hPa 0,0 l/m 2 min 0 min 576 W/m 37,7 km/h (5 Bft)
17.07.2015 09:58 27,9 C 26,7 C 62 % 0 lf 1011,8 hPa 0,0 l/m 2 min 0 min 583 W/m 35,6 km/h (5 Bft)
17.07.2015 10:00 27,9 C 26,7 C 62 % 0 lf 1011,9 hPa 0,0 l/m 2 min 0 min 589 W/m 35,6 km/h (5 Bft)
17.07.2015 10:02 27,9 C 26,7 C 64 % 0 lf 1011,8 hPa 0,0 l/m 2 min 0 min 592 W/m 25,1 km/h (4 Bft)
17.07.2015 10:04 28,0 C 27,2 C 63 % 0 lf 1011,8 hPa 0,0 l/m 2 min 0 min 599 W/m 35,6 km/h (5 Bft)
17.07.2015 10:06 28,1 C 27,8 C 63 % 0 lf 1011,8 hPa 0,0 l/m 2 min 0 min 599 W/m 31,4 km/h (5 Bft)
17.07.2015 10:08 28,1 C 28,3 C 63 % 0 lf 1011,9 hPa 0,0 l/m 2 min 0 min 604 W/m 29,3 km/h (5 Bft)
17.07.2015 10:10 28,1 C 30,0 C 64 % 0 lf 1011,9 hPa 0,0 l/m 2 min 0 min 608 W/m 27,2 km/h (4 Bft)
17.07.2015 10:12 28,2 C 30,6 C 63 % 0 lf 1011,9 hPa 0,0 l/m 2 min 0 min 613 W/m 37,7 km/h (5 Bft)
17.07.2015 10:14 28,2 C 30,6 C 62 % 0 lf 1011,9 hPa 0,0 l/m 2 min 0 min 619 W/m 35,6 km/h (5 Bft)
17.07.2015 10:16 28,3 C 31,1 C 63 % 0 lf 1011,9 hPa 0,0 l/m 2 min 0 min 626 W/m 20,9 km/h (4 Bft)
17.07.2015 10:18 28,4 C 31,1 C 63 % 0 lf 1011,9 hPa 0,0 l/m 2 min 0 min 629 W/m 27,2 km/h (4 Bft)
17.07.2015 10:20 28,4 C 31,1 C 62 % 0 lf 1011,9 hPa 0,0 l/m 2 min 0 min 632 W/m 25,1 km/h (4 Bft)
17.07.2015 10:22 28,5 C 31,1 C 62 % 0 lf 1011,9 hPa 0,0 l/m 2 min 0 min 639 W/m 31,4 km/h (5 Bft)
17.07.2015 10:24 28,6 C 31,7 C 63 % 0 lf 1011,9 hPa 0,0 l/m 2 min 0 min 645 W/m 31,4 km/h (5 Bft)
17.07.2015 10:26 28,6 C 31,7 C 62 % 0 lf 1012,0 hPa 0,0 l/m 2 min 0 min 649 W/m 35,6 km/h (5 Bft)
17.07.2015 10:28 28,6 C 31,1 C 61 % 0 lf 1012,0 hPa 0,0 l/m 2 min 0 min 660 W/m 35,6 km/h (5 Bft)
17.07.2015 10:30 28,6 C 31,7 C 63 % 0 lf 1012,0 hPa 0,0 l/m 2 min 0 min 666 W/m 25,1 km/h (4 Bft)
17.07.2015 10:32 28,7 C 31,1 C 62 % 0 lf 1012,1 hPa 0,0 l/m 2 min 0 min 666 W/m 35,6 km/h (5 Bft)
17.07.2015 10:34 28,7 C 31,1 C 62 % 0 lf 1012,1 hPa 0,0 l/m 2 min 0 min 670 W/m 25,1 km/h (4 Bft)
17.07.2015 10:36 28,8 C 31,7 C 63 % 0 lf 1012,1 hPa 0,0 l/m 2 min 0 min 676 W/m 25,1 km/h (4 Bft)
17.07.2015 10:38 28,8 C 31,1 C 62 % 0 lf 1012,1 hPa 0,0 l/m 2 min 0 min 684 W/m 35,6 km/h (5 Bft)
17.07.2015 10:40 28,9 C 31,7 C 62 % 0 lf 1012,2 hPa 0,0 l/m 2 min 0 min 680 W/m 27,2 km/h (4 Bft)
17.07.2015 10:42 29,0 C 31,7 C 63 % 0 lf 1012,2 hPa 0,0 l/m 2 min 0 min 690 W/m 33,5 km/h (5 Bft)
17.07.2015 10:44 29,1 C 31,1 C 62 % 0 lf 1012,1 hPa 0,0 l/m 2 min 0 min 693 W/m 31,4 km/h (5 Bft)
17.07.2015 10:46 29,1 C 30,0 C 61 % 0 lf 1012,1 hPa 0,0 l/m 2 min 0 min 693 W/m 31,4 km/h (5 Bft)
17.07.2015 10:48 29,1 C 28,9 C 61 % 0 lf 1012,1 hPa 0,0 l/m 2 min 0 min 691 W/m 37,7 km/h (5 Bft)
17.07.2015 10:50 29,1 C 28,9 C 61 % 0 lf 1012,2 hPa 0,0 l/m 2 min 0 min 700 W/m 41,8 km/h (6 Bft)
17.07.2015 10:52 29,1 C 30,0 C 60 % 0 lf 1012,2 hPa 0,0 l/m 2 min 0 min 702 W/m 31,4 km/h (5 Bft)
17.07.2015 10:54 29,1 C 31,1 C 61 % 0 lf 1012,3 hPa 0,0 l/m 2 min 0 min 711 W/m 23,0 km/h (4 Bft)
17.07.2015 10:56 29,1 C 31,1 C 61 % 0 lf 1012,2 hPa 0,0 l/m 2 min 0 min 714 W/m 27,2 km/h (4 Bft)
17.07.2015 10:58 29,1 C 31,1 C 61 % 0 lf 1012,2 hPa 0,0 l/m 2 min 0 min 711 W/m 27,2 km/h (4 Bft)
17.07.2015 11:00 29,2 C 31,1 C 60 % 0 lf 1012,3 hPa 0,0 l/m 2 min 0 min 714 W/m 35,6 km/h (5 Bft)
17.07.2015 11:02 29,2 C 31,1 C 61 % 0 lf 1012,2 hPa 0,0 l/m 2 min 0 min 714 W/m 39,7 km/h (6 Bft)
17.07.2015 11:04 29,2 C 31,1 C 61 % 0 lf 1012,2 hPa 0,0 l/m 2 min 0 min 726 W/m 31,4 km/h (5 Bft)
17.07.2015 11:06 29,2 C 32,2 C 62 % 0 lf 1012,1 hPa 0,0 l/m 2 min 0 min 736 W/m 27,2 km/h (4 Bft)
17.07.2015 11:08 29,3 C 32,2 C 61 % 0 lf 1012,2 hPa 0,0 l/m 2 min 0 min 735 W/m 27,2 km/h (4 Bft)
17.07.2015 11:10 29,4 C 31,7 C 61 % 0 lf 1012,2 hPa 0,0 l/m 2 min 0 min 735 W/m 25,1 km/h (4 Bft)
17.07.2015 11:12 29,4 C 31,7 C 60 % 0 lf 1012,2 hPa 0,0 l/m 2 min 0 min 738 W/m 29,3 km/h (5 Bft)
17.07.2015 11:14 29,5 C 31,7 C 60 % 0 lf 1012,2 hPa 0,0 l/m 2 min 0 min 742 W/m 25,1 km/h (4 Bft)
17.07.2015 11:16 29,6 C 31,7 C 59 % 0 lf 1012,3 hPa 0,0 l/m 2 min 0 min 748 W/m 29,3 km/h (5 Bft)
17.07.2015 11:18 29,6 C 30,6 C 59 % 0 lf 1012,2 hPa 0,0 l/m 2 min 0 min 747 W/m 35,6 km/h (5 Bft)
17.07.2015 11:20 29,6 C 31,1 C 59 % 0 lf 1012,3 hPa 0,0 l/m 2 min 0 min 756 W/m 31,4 km/h (5 Bft)
17.07.2015 11:22 29,6 C 31,1 C 60 % 0 lf 1012,2 hPa 0,0 l/m 2 min 0 min 760 W/m 25,1 km/h (4 Bft)
17.07.2015 11:24 29,6 C 30,6 C 59 % 0 lf 1012,2 hPa 0,0 l/m 2 min 0 min 756 W/m 31,4 km/h (5 Bft)
17.07.2015 11:26 29,6 C 29,4 C 60 % 0 lf 1012,2 hPa 0,0 l/m 2 min 0 min 785 W/m 31,4 km/h (5 Bft)
17.07.2015 11:28 29,6 C 30,0 C 59 % 0 lf 1012,3 hPa 0,0 l/m 2 min 0 min 765 W/m 27,2 km/h (4 Bft)
17.07.2015 11:30 29,6 C 30,0 C 59 % 0 lf 1012,2 hPa 0,0 l/m 2 min 0 min 771 W/m 25,1 km/h (4 Bft)
17.07.2015 11:32 29,6 C 30,0 C 60 % 0 lf 1012,3 hPa 0,0 l/m 2 min 0 min 775 W/m 41,8 km/h (6 Bft)
17.07.2015 11:34 29,7 C 30,0 C 60 % 0 lf 1012,3 hPa 0,0 l/m 2 min 0 min 777 W/m 23,0 km/h (4 Bft)
17.07.2015 11:36 29,7 C 28,9 C 60 % 0 lf 1012,3 hPa 0,0 l/m 2 min 0 min 783 W/m 25,1 km/h (4 Bft)
17.07.2015 11:38 29,8 C 28,9 C 60 % 0 lf 1012,4 hPa 0,0 l/m 2 min 0 min 778 W/m 31,4 km/h (5 Bft)
17.07.2015 11:40 29,9 C 29,4 C 59 % 0 lf 1012,3 hPa 0,0 l/m 2 min 0 min 778 W/m 20,9 km/h (4 Bft)
17.07.2015 11:42 29,9 C 30,0 C 59 % 0 lf 1012,4 hPa 0,0 l/m 2 min 0 min 787 W/m 23,0 km/h (4 Bft)
17.07.2015 11:44 30,0 C 31,1 C 59 % 0 lf 1012,4 hPa 0,0 l/m 2 min 0 min 792 W/m 23,0 km/h (4 Bft)
17.07.2015 11:46 30,1 C 32,2 C 59 % 0 lf 1012,5 hPa 0,0 l/m 2 min 0 min 800 W/m 20,9 km/h (4 Bft)
17.07.2015 11:48 30,2 C 33,3 C 59 % 0 lf 1012,4 hPa 0,0 l/m 2 min 0 min 801 W/m 25,1 km/h (4 Bft)
17.07.2015 11:50 30,3 C 33,3 C 59 % 0 lf 1012,4 hPa 0,0 l/m 2 min 0 min 799 W/m 31,4 km/h (5 Bft)
17.07.2015 11:52 30,4 C 33,3 C 58 % 0 lf 1012,4 hPa 0,0 l/m 2 min 0 min 790 W/m 18,8 km/h (3 Bft)
17.07.2015 11:54 30,4 C 32,8 C 58 % 0 lf 1012,5 hPa 0,0 l/m 2 min 0 min 804 W/m 27,2 km/h (4 Bft)
17.07.2015 11:56 30,5 C 32,8 C 57 % 0 lf 1012,4 hPa 0,0 l/m 2 min 0 min 812 W/m 27,2 km/h (4 Bft)
17.07.2015 11:58 30,6 C 33,3 C 58 % 0 lf 1012,4 hPa 0,0 l/m 2 min 0 min 800 W/m 18,8 km/h (3 Bft)
17.07.2015 12:00 30,6 C 33,3 C 57 % 0 lf 1012,4 hPa 0,0 l/m 2 min 0 min 813 W/m 29,3 km/h (5 Bft)
17.07.2015 12:02 30,6 C 32,8 C 57 % 0 lf 1012,4 hPa 0,0 l/m 2 min 0 min 818 W/m 35,6 km/h (5 Bft)
17.07.2015 12:05 30,7 C 32,2 C 57 % 0 lf 1012,4 hPa 0,0 l/m 2 min 0 min 807 W/m 29,3 km/h (5 Bft)
17.07.2015 12:06 30,7 C 32,2 C 57 % 0 lf 1012,5 hPa 0,0 l/m 1 min 0 min 813 W/m 29,3 km/h (5 Bft)
17.07.2015 12:08 30,7 C 32,8 C 57 % 0 lf 1012,5 hPa 0,0 l/m 2 min 0 min 798 W/m 29,3 km/h (5 Bft)
17.07.2015 12:10 30,7 C 33,3 C 56 % 0 lf 1012,6 hPa 0,0 l/m 2 min 0 min 748 W/m 18,8 km/h (3 Bft)
17.07.2015 12:12 30,7 C 33,9 C 55 % 0 lf 1012,5 hPa 0,0 l/m 2 min 0 min 633 W/m 29,3 km/h (5 Bft)
17.07.2015 12:14 30,8 C 33,9 C 56 % 0 lf 1012,6 hPa 0,0 l/m 0 min 0 min 375 W/m 29,3 km/h (5 Bft)
17.07.2015 12:16 30,8 C 33,3 C 56 % 0 lf 1012,6 hPa 0,0 l/m 0 min 0 min 157 W/m 31,4 km/h (5 Bft)
17.07.2015 12:18 30,8 C 33,3 C 55 % 0 lf 1012,6 hPa 0,0 l/m 0 min 0 min 137 W/m 23,0 km/h (4 Bft)
17.07.2015 12:20 30,8 C 33,3 C 54 % 0 lf 1012,6 hPa 0,0 l/m 0 min 0 min 140 W/m 35,6 km/h (5 Bft)
17.07.2015 12:22 30,8 C 33,9 C 55 % 0 lf 1012,6 hPa 0,0 l/m 0 min 0 min 124 W/m 18,8 km/h (3 Bft)
17.07.2015 12:24 30,8 C 33,9 C 56 % 0 lf 1012,6 hPa 0,0 l/m 0 min 0 min 151 W/m 31,4 km/h (5 Bft)
17.07.2015 12:26 30,8 C 33,3 C 56 % 0 lf 1012,6 hPa 0,0 l/m 0 min 0 min 176 W/m 25,1 km/h (4 Bft)
17.07.2015 12:28 30,9 C 33,9 C 57 % 0 lf 1012,5 hPa 0,0 l/m 2 min 0 min 727 W/m 23,0 km/h (4 Bft)
17.07.2015 12:30 30,9 C 33,9 C 55 % 0 lf 1012,6 hPa 0,0 l/m 2 min 0 min 838 W/m 25,1 km/h (4 Bft)
17.07.2015 12:32 31,0 C 33,9 C 55 % 0 lf 1012,6 hPa 0,0 l/m 2 min 0 min 844 W/m 23,0 km/h (4 Bft)
17.07.2015 12:34 31,1 C 33,3 C 56 % 0 lf 1012,5 hPa 0,0 l/m 2 min 0 min 848 W/m 25,1 km/h (4 Bft)
17.07.2015 12:36 31,1 C 32,8 C 54 % 0 lf 1012,7 hPa 0,0 l/m 2 min 0 min 836 W/m 41,8 km/h (6 Bft)
17.07.2015 12:38 31,1 C 32,2 C 54 % 0 lf 1012,6 hPa 0,0 l/m 2 min 0 min 830 W/m 37,7 km/h (5 Bft)
17.07.2015 12:40 31,0 C 31,7 C 53 % 0 lf 1012,6 hPa 0,0 l/m 2 min 0 min 849 W/m 35,6 km/h (5 Bft)
17.07.2015 12:42 30,9 C 31,1 C 53 % 0 lf 1012,5 hPa 0,0 l/m 2 min 0 min 853 W/m 25,1 km/h (4 Bft)
17.07.2015 12:44 30,9 C 31,7 C 54 % 0 lf 1012,7 hPa 0,0 l/m 2 min 0 min 869 W/m 33,5 km/h (5 Bft)
17.07.2015 12:46 30,9 C 31,7 C 53 % 0 lf 1012,7 hPa 0,0 l/m 2 min 0 min 865 W/m 25,1 km/h (4 Bft)
17.07.2015 12:48 31,0 C 32,2 C 54 % 0 lf 1012,7 hPa 0,0 l/m 2 min 0 min 855 W/m 20,9 km/h (4 Bft)
17.07.2015 12:50 31,1 C 32,2 C 53 % 0 lf 1012,6 hPa 0,0 l/m 2 min 0 min 858 W/m 29,3 km/h (5 Bft)
17.07.2015 12:52 31,1 C 32,2 C 53 % 0 lf 1012,7 hPa 0,0 l/m 2 min 0 min 844 W/m 27,2 km/h (4 Bft)
17.07.2015 12:54 31,2 C 31,1 C 52 % 0 lf 1012,7 hPa 0,0 l/m 2 min 0 min 850 W/m 39,7 km/h (6 Bft)
17.07.2015 12:56 31,2 C 31,1 C 54 % 0 lf 1012,7 hPa 0,0 l/m 2 min 0 min 861 W/m 39,7 km/h (6 Bft)
17.07.2015 12:58 31,3 C 30,6 C 54 % 0 lf 1012,7 hPa 0,0 l/m 2 min 0 min 859 W/m 29,3 km/h (5 Bft)
17.07.2015 13:00 31,4 C 30,6 C 53 % 0 lf 1012,7 hPa 0,0 l/m 2 min 0 min 848 W/m 23,0 km/h (4 Bft)
17.07.2015 13:02 31,4 C 30,6 C 54 % 0 lf 1012,8 hPa 0,0 l/m 2 min 0 min 860 W/m 29,3 km/h (5 Bft)
17.07.2015 13:04 31,5 C 30,6 C 53 % 0 lf 1012,8 hPa 0,0 l/m 2 min 0 min 860 W/m 35,6 km/h (5 Bft)
17.07.2015 13:06 31,5 C 30,0 C 52 % 0 lf 1012,8 hPa 0,0 l/m 2 min 0 min 861 W/m 27,2 km/h (4 Bft)
17.07.2015 13:08 31,5 C 30,0 C 51 % 0 lf 1012,8 hPa 0,0 l/m 2 min 0 min 859 W/m 33,5 km/h (5 Bft)
17.07.2015 13:10 31,5 C 30,0 C 51 % 0 lf 1012,8 hPa 0,0 l/m 2 min 0 min 851 W/m 37,7 km/h (5 Bft)
17.07.2015 13:12 31,4 C 30,6 C 51 % 0 lf 1012,7 hPa 0,0 l/m 2 min 0 min 855 W/m 27,2 km/h (4 Bft)
17.07.2015 13:14 31,5 C 31,1 C 51 % 0 lf 1012,7 hPa 0,0 l/m 2 min 0 min 872 W/m 35,6 km/h (5 Bft)
17.07.2015 13:16 31,5 C 31,1 C 52 % 0 lf 1012,7 hPa 0,0 l/m 2 min 0 min 863 W/m 27,2 km/h (4 Bft)
17.07.2015 13:18 31,6 C 32,2 C 51 % 0 lf 1012,8 hPa 0,0 l/m 2 min 0 min 862 W/m 23,0 km/h (4 Bft)
17.07.2015 13:20 31,6 C 32,2 C 52 % 0 lf 1012,7 hPa 0,0 l/m 2 min 0 min 868 W/m 20,9 km/h (4 Bft)
17.07.2015 13:22 31,7 C 32,2 C 52 % 0 lf 1012,7 hPa 0,0 l/m 2 min 0 min 864 W/m 27,2 km/h (4 Bft)
17.07.2015 13:24 31,7 C 32,2 C 50 % 0 lf 1012,6 hPa 0,0 l/m 2 min 0 min 865 W/m 31,4 km/h (5 Bft)
17.07.2015 13:26 31,7 C 31,1 C 50 % 0 lf 1012,7 hPa 0,0 l/m 2 min 0 min 873 W/m 25,1 km/h (4 Bft)
17.07.2015 13:28 31,7 C 30,6 C 50 % 0 lf 1012,5 hPa 0,0 l/m 2 min 0 min 873 W/m 37,7 km/h (5 Bft)
17.07.2015 13:30 31,7 C 30,6 C 50 % 0 lf 1012,5 hPa 0,0 l/m 2 min 0 min 869 W/m 27,2 km/h (4 Bft)
17.07.2015 13:32 31,7 C 30,6 C 52 % 0 lf 1012,6 hPa 0,0 l/m 2 min 0 min 869 W/m 27,2 km/h (4 Bft)
17.07.2015 13:34 31,8 C 30,0 C 51 % 0 lf 1012,6 hPa 0,0 l/m 2 min 0 min 844 W/m 25,1 km/h (4 Bft)
17.07.2015 13:36 31,9 C 30,0 C 51 % 0 lf 1012,6 hPa 0,0 l/m 2 min 0 min 865 W/m 33,5 km/h (5 Bft)
17.07.2015 13:38 31,9 C 30,6 C 50 % 0 lf 1012,6 hPa 0,0 l/m 2 min 0 min 864 W/m 29,3 km/h (5 Bft)
17.07.2015 13:40 32,0 C 30,6 C 51 % 0 lf 1012,5 hPa 0,0 l/m 2 min 0 min 872 W/m 31,4 km/h (5 Bft)
17.07.2015 13:42 32,0 C 30,6 C 48 % 0 lf 1012,6 hPa 0,0 l/m 2 min 0 min 864 W/m 27,2 km/h (4 Bft)
17.07.2015 13:44 32,0 C 30,0 C 46 % 0 lf 1012,6 hPa 0,0 l/m 2 min 0 min 867 W/m 37,7 km/h (5 Bft)
17.07.2015 13:46 32,0 C 30,0 C 46 % 0 lf 1012,5 hPa 0,0 l/m 2 min 0 min 874 W/m 37,7 km/h (5 Bft)
17.07.2015 13:48 32,0 C 30,0 C 47 % 0 lf 1012,6 hPa 0,0 l/m 2 min 0 min 869 W/m 35,6 km/h (5 Bft)
17.07.2015 13:50 31,9 C 30,0 C 47 % 0 lf 1012,5 hPa 0,0 l/m 2 min 0 min 870 W/m 35,6 km/h (5 Bft)
17.07.2015 13:52 31,9 C 30,0 C 46 % 0 lf 1012,6 hPa 0,0 l/m 2 min 0 min 861 W/m 35,6 km/h (5 Bft)
17.07.2015 13:54 31,9 C 30,0 C 48 % 0 lf 1012,5 hPa 0,0 l/m 2 min 0 min 862 W/m 23,0 km/h (4 Bft)
17.07.2015 13:56 31,9 C 30,0 C 47 % 0 lf 1012,6 hPa 0,0 l/m 2 min 0 min 857 W/m 27,2 km/h (4 Bft)
17.07.2015 13:58 31,9 C 30,0 C 48 % 0 lf 1012,5 hPa 0,0 l/m 2 min 0 min 859 W/m 18,8 km/h (3 Bft)
17.07.2015 14:00 31,9 C 30,0 C 47 % 0 lf 1012,6 hPa 0,0 l/m 2 min 0 min 861 W/m 29,3 km/h (5 Bft)
17.07.2015 14:02 31,9 C 30,0 C 47 % 0 lf 1012,6 hPa 0,0 l/m 2 min 0 min 870 W/m 35,6 km/h (5 Bft)
17.07.2015 14:04 32,0 C 30,6 C 47 % 0 lf 1012,6 hPa 0,0 l/m 2 min 0 min 869 W/m 29,3 km/h (5 Bft)
17.07.2015 14:06 32,1 C 30,6 C 45 % 0 lf 1012,6 hPa 0,0 l/m 2 min 0 min 862 W/m 31,4 km/h (5 Bft)
17.07.2015 14:08 32,2 C 30,0 C 45 % 0 lf 1012,6 hPa 0,0 l/m 2 min 0 min 861 W/m 35,6 km/h (5 Bft)
17.07.2015 14:10 32,2 C 30,0 C 47 % 0 lf 1012,7 hPa 0,0 l/m 2 min 0 min 860 W/m 27,2 km/h (4 Bft)
17.07.2015 14:12 32,3 C 30,6 C 48 % 0 lf 1012,6 hPa 0,0 l/m 2 min 0 min 856 W/m 20,9 km/h (4 Bft)
17.07.2015 14:14 32,3 C 30,6 C 46 % 0 lf 1012,6 hPa 0,0 l/m 2 min 0 min 856 W/m 31,4 km/h (5 Bft)
17.07.2015 14:16 32,4 C 30,6 C 47 % 0 lf 1012,6 hPa 0,0 l/m 2 min 0 min 855 W/m 27,2 km/h (4 Bft)
17.07.2015 14:18 32,4 C 30,6 C 45 % 0 lf 1012,5 hPa 0,0 l/m 2 min 0 min 851 W/m 20,9 km/h (4 Bft)
17.07.2015 14:20 32,4 C 30,6 C 46 % 0 lf 1012,6 hPa 0,0 l/m 2 min 0 min 850 W/m 33,5 km/h (5 Bft)
17.07.2015 14:22 32,5 C 30,6 C 46 % 0 lf 1012,5 hPa 0,0 l/m 2 min 0 min 848 W/m 25,1 km/h (4 Bft)
17.07.2015 14:24 32,6 C 30,6 C 47 % 0 lf 1012,5 hPa 0,0 l/m 2 min 0 min 848 W/m 27,2 km/h (4 Bft)
17.07.2015 14:26 32,6 C 30,6 C 46 % 0 lf 1012,5 hPa 0,0 l/m 2 min 0 min 839 W/m 25,1 km/h (4 Bft)
17.07.2015 14:28 32,7 C 30,6 C 46 % 0 lf 1012,5 hPa 0,0 l/m 2 min 0 min 842 W/m 27,2 km/h (4 Bft)
17.07.2015 14:30 32,7 C 30,6 C 46 % 0 lf 1012,5 hPa 0,0 l/m 2 min 0 min 847 W/m 33,5 km/h (5 Bft)
17.07.2015 14:32 32,8 C 30,6 C 48 % 0 lf 1012,4 hPa 0,0 l/m 2 min 0 min 839 W/m 25,1 km/h (4 Bft)
17.07.2015 14:34 32,8 C 31,1 C 48 % 0 lf 1012,5 hPa 0,0 l/m 2 min 0 min 830 W/m 27,2 km/h (4 Bft)
17.07.2015 14:36 32,9 C 31,1 C 48 % 0 lf 1012,5 hPa 0,0 l/m 2 min 0 min 833 W/m 16,7 km/h (3 Bft)
17.07.2015 14:38 33,0 C 31,1 C 48 % 0 lf 1012,4 hPa 0,0 l/m 2 min 0 min 841 W/m 27,2 km/h (4 Bft)
17.07.2015 14:40 33,1 C 31,1 C 46 % 0 lf 1012,5 hPa 0,0 l/m 2 min 0 min 838 W/m 27,2 km/h (4 Bft)
17.07.2015 14:42 33,2 C 31,1 C 46 % 0 lf 1012,5 hPa 0,0 l/m 2 min 0 min 838 W/m 27,2 km/h (4 Bft)
17.07.2015 14:44 33,2 C 31,1 C 45 % 0 lf 1012,5 hPa 0,0 l/m 2 min 0 min 835 W/m 27,2 km/h (4 Bft)
17.07.2015 14:46 33,2 C 31,1 C 44 % 0 lf 1012,6 hPa 0,0 l/m 2 min 0 min 834 W/m 25,1 km/h (4 Bft)
17.07.2015 14:48 33,2 C 31,1 C 44 % 0 lf 1012,5 hPa 0,0 l/m 2 min 0 min 830 W/m 20,9 km/h (4 Bft)
17.07.2015 14:50 33,2 C 31,1 C 45 % 0 lf 1012,6 hPa 0,0 l/m 2 min 0 min 833 W/m 27,2 km/h (4 Bft)
17.07.2015 14:52 33,2 C 31,1 C 46 % 0 lf 1012,5 hPa 0,0 l/m 2 min 0 min 830 W/m 25,1 km/h (4 Bft)
17.07.2015 14:54 33,2 C 31,1 C 45 % 0 lf 1012,5 hPa 0,0 l/m 2 min 0 min 826 W/m 37,7 km/h (5 Bft)
17.07.2015 14:56 33,2 C 31,1 C 45 % 0 lf 1012,5 hPa 0,0 l/m 2 min 0 min 826 W/m 33,5 km/h (5 Bft)
17.07.2015 14:58 33,2 C 30,6 C 45 % 0 lf 1012,5 hPa 0,0 l/m 2 min 0 min 822 W/m 27,2 km/h (4 Bft)
17.07.2015 15:00 33,2 C 31,1 C 45 % 0 lf 1012,4 hPa 0,0 l/m 2 min 0 min 816 W/m 27,2 km/h (4 Bft)
17.07.2015 15:02 33,2 C 31,1 C 46 % 0 lf 1012,4 hPa 0,0 l/m 2 min 0 min 818 W/m 20,9 km/h (4 Bft)
17.07.2015 15:04 33,2 C 31,1 C 47 % 0 lf 1012,4 hPa 0,0 l/m 2 min 0 min 820 W/m 14,6 km/h (3 Bft)
17.07.2015 15:06 33,3 C 31,1 C 47 % 0 lf 1012,4 hPa 0,0 l/m 2 min 0 min 811 W/m 29,3 km/h (5 Bft)
17.07.2015 15:08 33,4 C 31,1 C 47 % 0 lf 1012,4 hPa 0,0 l/m 2 min 0 min 810 W/m 20,9 km/h (4 Bft)
17.07.2015 15:10 33,4 C 31,1 C 47 % 0 lf 1012,4 hPa 0,0 l/m 2 min 0 min 803 W/m 25,1 km/h (4 Bft)
17.07.2015 15:12 33,4 C 31,1 C 46 % 0 lf 1012,4 hPa 0,0 l/m 2 min 0 min 801 W/m 16,7 km/h (3 Bft)
17.07.2015 15:14 33,5 C 31,1 C 48 % 0 lf 1012,2 hPa 0,0 l/m 2 min 0 min 806 W/m 18,8 km/h (3 Bft)
17.07.2015 15:16 33,6 C 31,1 C 46 % 0 lf 1012,3 hPa 0,0 l/m 2 min 0 min 806 W/m 37,7 km/h (5 Bft)
17.07.2015 15:18 33,6 C 31,1 C 45 % 0 lf 1012,3 hPa 0,0 l/m 2 min 0 min 793 W/m 23,0 km/h (4 Bft)
17.07.2015 15:20 33,6 C 31,1 C 44 % 0 lf 1012,3 hPa 0,0 l/m 2 min 0 min 800 W/m 25,1 km/h (4 Bft)
17.07.2015 15:22 33,6 C 31,1 C 43 % 0 lf 1012,3 hPa 0,0 l/m 2 min 0 min 798 W/m 31,4 km/h (5 Bft)
17.07.2015 15:24 33,6 C 31,1 C 42 % 0 lf 1012,3 hPa 0,0 l/m 2 min 0 min 793 W/m 23,0 km/h (4 Bft)
17.07.2015 15:26 33,6 C 31,1 C 43 % 0 lf 1012,2 hPa 0,0 l/m 2 min 0 min 788 W/m 27,2 km/h (4 Bft)
17.07.2015 15:28 33,6 C 31,1 C 44 % 0 lf 1012,3 hPa 0,0 l/m 2 min 0 min 791 W/m 43,9 km/h (6 Bft)
17.07.2015 15:30 33,6 C 31,1 C 45 % 0 lf 1012,3 hPa 0,0 l/m 2 min 0 min 783 W/m 29,3 km/h (5 Bft)
17.07.2015 15:32 33,5 C 31,1 C 43 % 0 lf 1012,3 hPa 0,0 l/m 2 min 0 min 778 W/m 33,5 km/h (5 Bft)
17.07.2015 15:34 33,5 C 31,1 C 43 % 0 lf 1012,2 hPa 0,0 l/m 2 min 0 min 772 W/m 23,0 km/h (4 Bft)
17.07.2015 15:36 33,5 C 31,1 C 42 % 0 lf 1012,2 hPa 0,0 l/m 2 min 0 min 768 W/m 31,4 km/h (5 Bft)
17.07.2015 15:38 33,6 C 31,1 C 42 % 0 lf 1012,2 hPa 0,0 l/m 2 min 0 min 771 W/m 33,5 km/h (5 Bft)
17.07.2015 15:40 33,5 C 31,1 C 42 % 0 lf 1012,2 hPa 0,0 l/m 2 min 0 min 761 W/m 37,7 km/h (5 Bft)
17.07.2015 15:42 33,4 C 31,1 C 42 % 0 lf 1012,2 hPa 0,0 l/m 2 min 0 min 755 W/m 35,6 km/h (5 Bft)
17.07.2015 15:44 33,4 C 31,1 C 41 % 0 lf 1012,2 hPa 0,0 l/m 2 min 0 min 757 W/m 29,3 km/h (5 Bft)
17.07.2015 15:46 33,4 C 31,1 C 43 % 0 lf 1012,1 hPa 0,0 l/m 2 min 0 min 763 W/m 23,0 km/h (4 Bft)
17.07.2015 15:48 33,4 C 31,1 C 41 % 0 lf 1012,2 hPa 0,0 l/m 2 min 0 min 760 W/m 35,6 km/h (5 Bft)
17.07.2015 15:50 33,4 C 31,1 C 40 % 0 lf 1012,2 hPa 0,0 l/m 2 min 0 min 760 W/m 35,6 km/h (5 Bft)
17.07.2015 15:52 33,4 C 31,1 C 40 % 0 lf 1012,2 hPa 0,0 l/m 2 min 0 min 752 W/m 31,4 km/h (5 Bft)
17.07.2015 15:54 33,4 C 31,1 C 41 % 0 lf 1012,2 hPa 0,0 l/m 2 min 0 min 746 W/m 23,0 km/h (4 Bft)
17.07.2015 15:56 33,4 C 31,1 C 42 % 0 lf 1012,2 hPa 0,0 l/m 2 min 0 min 742 W/m 25,1 km/h (4 Bft)
17.07.2015 15:58 33,5 C 31,7 C 43 % 0 lf 1012,2 hPa 0,0 l/m 2 min 0 min 740 W/m 23,0 km/h (4 Bft)
17.07.2015 16:00 33,6 C 31,7 C 43 % 0 lf 1012,1 hPa 0,0 l/m 2 min 0 min 736 W/m 33,5 km/h (5 Bft)
17.07.2015 16:02 33,7 C 31,1 C 42 % 0 lf 1012,2 hPa 0,0 l/m 2 min 0 min 731 W/m 27,2 km/h (4 Bft)
17.07.2015 16:04 33,7 C 31,1 C 45 % 0 lf 1012,1 hPa 0,0 l/m 2 min 0 min 731 W/m 20,9 km/h (4 Bft)
17.07.2015 16:06 33,7 C 31,7 C 43 % 0 lf 1012,1 hPa 0,0 l/m 2 min 0 min 733 W/m 31,4 km/h (5 Bft)
17.07.2015 16:08 33,7 C 31,7 C 42 % 0 lf 1012,1 hPa 0,0 l/m 2 min 0 min 727 W/m 25,1 km/h (4 Bft)
17.07.2015 16:10 33,7 C 31,7 C 41 % 0 lf 1012,1 hPa 0,0 l/m 2 min 0 min 721 W/m 25,1 km/h (4 Bft)
17.07.2015 16:12 33,8 C 31,7 C 41 % 0 lf 1012,1 hPa 0,0 l/m 2 min 0 min 716 W/m 29,3 km/h (5 Bft)
17.07.2015 16:14 33,8 C 31,7 C 41 % 0 lf 1012,1 hPa 0,0 l/m 2 min 0 min 716 W/m 35,6 km/h (5 Bft)
17.07.2015 16:16 33,8 C 31,7 C 38 % 0 lf 1012,1 hPa 0,0 l/m 2 min 0 min 716 W/m 37,7 km/h (5 Bft)
17.07.2015 16:18 33,8 C 32,2 C 38 % 0 lf 1012,1 hPa 0,0 l/m 2 min 0 min 713 W/m 31,4 km/h (5 Bft)
17.07.2015 16:20 33,7 C 32,8 C 38 % 0 lf 1012,1 hPa 0,0 l/m 2 min 0 min 698 W/m 25,1 km/h (4 Bft)
17.07.2015 16:22 33,7 C 32,8 C 38 % 0 lf 1012,2 hPa 0,0 l/m 2 min 0 min 686 W/m 41,8 km/h (6 Bft)
17.07.2015 16:24 33,7 C 31,7 C 37 % 0 lf 1012,0 hPa 0,0 l/m 2 min 0 min 684 W/m 43,9 km/h (6 Bft)
17.07.2015 16:26 33,6 C 32,2 C 37 % 0 lf 1011,9 hPa 0,0 l/m 2 min 0 min 683 W/m 43,9 km/h (6 Bft)
17.07.2015 16:28 33,5 C 32,8 C 38 % 0 lf 1011,9 hPa 0,0 l/m 2 min 0 min 686 W/m 41,8 km/h (6 Bft)
17.07.2015 16:30 33,4 C 32,8 C 39 % 0 lf 1011,9 hPa 0,0 l/m 2 min 0 min 680 W/m 25,1 km/h (4 Bft)
17.07.2015 16:32 33,4 C 32,2 C 41 % 0 lf 1012,0 hPa 0,0 l/m 2 min 0 min 677 W/m 23,0 km/h (4 Bft)
17.07.2015 16:34 33,4 C 31,7 C 41 % 0 lf 1011,9 hPa 0,0 l/m 2 min 0 min 671 W/m 25,1 km/h (4 Bft)
17.07.2015 16:36 33,4 C 31,7 C 41 % 0 lf 1012,0 hPa 0,0 l/m 2 min 0 min 664 W/m 16,7 km/h (3 Bft)
17.07.2015 16:38 33,6 C 31,7 C 42 % 0 lf 1012,0 hPa 0,0 l/m 2 min 0 min 655 W/m 31,4 km/h (5 Bft)
17.07.2015 16:40 33,6 C 31,7 C 41 % 0 lf 1012,0 hPa 0,0 l/m 2 min 0 min 654 W/m 25,1 km/h (4 Bft)
17.07.2015 16:42 33,6 C 31,7 C 42 % 0 lf 1011,9 hPa 0,0 l/m 2 min 0 min 652 W/m 31,4 km/h (5 Bft)
17.07.2015 16:44 33,7 C 31,7 C 40 % 0 lf 1011,9 hPa 0,0 l/m 2 min 0 min 649 W/m 27,2 km/h (4 Bft)
17.07.2015 16:46 33,7 C 31,7 C 40 % 0 lf 1012,0 hPa 0,0 l/m 2 min 0 min 649 W/m 25,1 km/h (4 Bft)
17.07.2015 16:48 33,7 C 31,1 C 41 % 0 lf 1011,9 hPa 0,0 l/m 2 min 0 min 646 W/m 35,6 km/h (5 Bft)
17.07.2015 16:50 33,7 C 31,1 C 40 % 0 lf 1011,9 hPa 0,0 l/m 2 min 0 min 644 W/m 27,2 km/h (4 Bft)
17.07.2015 16:52 33,7 C 31,1 C 40 % 0 lf 1011,9 hPa 0,0 l/m 2 min 0 min 638 W/m 23,0 km/h (4 Bft)
17.07.2015 16:54 33,7 C 31,1 C 41 % 0 lf 1011,9 hPa 0,0 l/m 2 min 0 min 634 W/m 31,4 km/h (5 Bft)
17.07.2015 16:56 33,7 C 31,1 C 40 % 0 lf 1011,8 hPa 0,0 l/m 2 min 0 min 631 W/m 33,5 km/h (5 Bft)
17.07.2015 16:58 33,7 C 31,1 C 41 % 0 lf 1011,8 hPa 0,0 l/m 2 min 0 min 630 W/m 18,8 km/h (3 Bft)
17.07.2015 17:00 33,7 C 31,1 C 40 % 0 lf 1011,7 hPa 0,0 l/m 2 min 0 min 626 W/m 23,0 km/h (4 Bft)
17.07.2015 17:02 33,7 C 31,1 C 40 % 0 lf 1011,8 hPa 0,0 l/m 2 min 0 min 622 W/m 29,3 km/h (5 Bft)
17.07.2015 17:04 33,8 C 31,1 C 41 % 0 lf 1011,7 hPa 0,0 l/m 2 min 0 min 617 W/m 25,1 km/h (4 Bft)
17.07.2015 17:06 33,8 C 31,1 C 41 % 0 lf 1011,6 hPa 0,0 l/m 2 min 0 min 609 W/m 29,3 km/h (5 Bft)
17.07.2015 17:08 33,8 C 31,1 C 41 % 0 lf 1011,6 hPa 0,0 l/m 2 min 0 min 604 W/m 20,9 km/h (4 Bft)
17.07.2015 17:10 33,8 C 30,6 C 40 % 0 lf 1011,6 hPa 0,0 l/m 2 min 0 min 593 W/m 31,4 km/h (5 Bft)
17.07.2015 17:12 33,8 C 30,6 C 40 % 0 lf 1011,6 hPa 0,0 l/m 2 min 0 min 585 W/m 20,9 km/h (4 Bft)
17.07.2015 17:14 33,7 C 30,6 C 40 % 0 lf 1011,6 hPa 0,0 l/m 2 min 0 min 586 W/m 25,1 km/h (4 Bft)
17.07.2015 17:16 33,7 C 30,6 C 40 % 0 lf 1011,5 hPa 0,0 l/m 2 min 0 min 586 W/m 18,8 km/h (3 Bft)
17.07.2015 17:18 33,6 C 30,6 C 41 % 0 lf 1011,5 hPa 0,0 l/m 2 min 0 min 582 W/m 25,1 km/h (4 Bft)
17.07.2015 17:20 33,6 C 30,6 C 41 % 0 lf 1011,6 hPa 0,0 l/m 2 min 0 min 573 W/m 18,8 km/h (3 Bft)
17.07.2015 17:22 33,5 C 30,6 C 41 % 0 lf 1011,6 hPa 0,0 l/m 2 min 0 min 562 W/m 23,0 km/h (4 Bft)
17.07.2015 17:24 33,5 C 30,0 C 43 % 0 lf 1011,5 hPa 0,0 l/m 2 min 0 min 548 W/m 23,0 km/h (4 Bft)
17.07.2015 17:26 33,5 C 30,0 C 43 % 0 lf 1011,5 hPa 0,0 l/m 2 min 0 min 546 W/m 16,7 km/h (3 Bft)
17.07.2015 17:28 33,5 C 30,0 C 42 % 0 lf 1011,6 hPa 0,0 l/m 2 min 0 min 542 W/m 16,7 km/h (3 Bft)
17.07.2015 17:30 33,5 C 30,0 C 43 % 0 lf 1011,5 hPa 0,0 l/m 2 min 0 min 542 W/m 14,6 km/h (3 Bft)
17.07.2015 17:32 33,4 C 30,0 C 43 % 0 lf 1011,5 hPa 0,0 l/m 2 min 0 min 542 W/m 20,9 km/h (4 Bft)
17.07.2015 17:34 33,4 C 30,0 C 43 % 0 lf 1011,4 hPa 0,0 l/m 2 min 0 min 540 W/m 16,7 km/h (3 Bft)
17.07.2015 17:36 33,4 C 30,0 C 43 % 0 lf 1011,4 hPa 0,0 l/m 2 min 0 min 531 W/m 25,1 km/h (4 Bft)
17.07.2015 17:38 33,3 C 30,0 C 43 % 0 lf 1011,5 hPa 0,0 l/m 2 min 0 min 527 W/m 23,0 km/h (4 Bft)
17.07.2015 17:40 33,3 C 30,0 C 44 % 0 lf 1011,5 hPa 0,0 l/m 2 min 0 min 521 W/m 20,9 km/h (4 Bft)
17.07.2015 17:42 33,2 C 29,4 C 43 % 0 lf 1011,4 hPa 0,0 l/m 2 min 0 min 510 W/m 20,9 km/h (4 Bft)
17.07.2015 17:44 33,2 C 29,4 C 43 % 0 lf 1011,5 hPa 0,0 l/m 2 min 0 min 509 W/m 23,0 km/h (4 Bft)
17.07.2015 17:46 33,1 C 29,4 C 43 % 0 lf 1011,5 hPa 0,0 l/m 2 min 0 min 508 W/m 20,9 km/h (4 Bft)
17.07.2015 17:48 33,0 C 28,9 C 43 % 0 lf 1011,6 hPa 0,0 l/m 2 min 0 min 494 W/m 20,9 km/h (4 Bft)
17.07.2015 17:50 32,9 C 28,9 C 44 % 0 lf 1011,5 hPa 0,0 l/m 2 min 0 min 498 W/m 25,1 km/h (4 Bft)
17.07.2015 17:52 32,9 C 28,9 C 43 % 0 lf 1011,5 hPa 0,0 l/m 2 min 0 min 493 W/m 29,3 km/h (5 Bft)
17.07.2015 17:54 32,8 C 28,9 C 43 % 0 lf 1011,5 hPa 0,0 l/m 2 min 0 min 486 W/m 25,1 km/h (4 Bft)
17.07.2015 17:56 32,7 C 28,9 C 44 % 0 lf 1011,6 hPa 0,0 l/m 2 min 0 min 481 W/m 16,7 km/h (3 Bft)
17.07.2015 17:58 32,6 C 28,9 C 44 % 0 lf 1011,4 hPa 0,0 l/m 2 min 0 min 473 W/m 23,0 km/h (4 Bft)
17.07.2015 18:00 32,5 C 28,9 C 44 % 0 lf 1011,5 hPa 0,0 l/m 2 min 0 min 467 W/m 25,1 km/h (4 Bft)
17.07.2015 18:02 32,4 C 28,9 C 44 % 0 lf 1011,5 hPa 0,0 l/m 2 min 0 min 461 W/m 23,0 km/h (4 Bft)
17.07.2015 18:05 32,3 C 28,9 C 45 % 0 lf 1011,5 hPa 0,0 l/m 2 min 0 min 454 W/m 20,9 km/h (4 Bft)
17.07.2015 18:08 32,2 C 28,3 C 45 % 0 lf 1011,5 hPa 0,0 l/m 2 min 0 min 449 W/m 23,0 km/h (4 Bft)
17.07.2015 18:10 32,2 C 28,3 C 44 % 0 lf 1011,5 hPa 0,0 l/m 2 min 0 min 439 W/m 25,1 km/h (4 Bft)
17.07.2015 18:12 32,1 C 28,3 C 45 % 0 lf 1011,5 hPa 0,0 l/m 2 min 0 min 432 W/m 8,4 km/h (2 Bft)
17.07.2015 18:14 32,0 C 28,3 C 46 % 0 lf 1011,4 hPa 0,0 l/m 2 min 0 min 429 W/m 14,6 km/h (3 Bft)
17.07.2015 18:16 31,9 C 28,3 C 46 % 0 lf 1011,4 hPa 0,0 l/m 2 min 0 min 424 W/m 23,0 km/h (4 Bft)
17.07.2015 18:18 31,8 C 28,3 C 46 % 0 lf 1011,4 hPa 0,0 l/m 2 min 0 min 420 W/m 18,8 km/h (3 Bft)
17.07.2015 18:20 31,8 C 28,3 C 47 % 0 lf 1011,3 hPa 0,0 l/m 2 min 0 min 415 W/m 18,8 km/h (3 Bft)
17.07.2015 18:22 31,8 C 28,3 C 47 % 0 lf 1011,4 hPa 0,0 l/m 2 min 0 min 407 W/m 14,6 km/h (3 Bft)
17.07.2015 18:24 31,7 C 28,3 C 47 % 0 lf 1011,3 hPa 0,0 l/m 2 min 0 min 405 W/m 12,6 km/h (3 Bft)
17.07.2015 18:26 31,7 C 28,3 C 46 % 0 lf 1011,3 hPa 0,0 l/m 2 min 0 min 401 W/m 25,1 km/h (4 Bft)
17.07.2015 18:28 31,6 C 27,8 C 46 % 0 lf 1011,5 hPa 0,0 l/m 2 min 0 min 398 W/m 18,8 km/h (3 Bft)
17.07.2015 18:30 31,5 C 27,8 C 46 % 0 lf 1011,4 hPa 0,0 l/m 2 min 0 min 391 W/m 18,8 km/h (3 Bft)
17.07.2015 18:32 31,4 C 27,8 C 46 % 0 lf 1011,4 hPa 0,0 l/m 2 min 0 min 390 W/m 25,1 km/h (4 Bft)
17.07.2015 18:34 31,4 C 27,8 C 46 % 0 lf 1011,4 hPa 0,0 l/m 2 min 0 min 383 W/m 18,8 km/h (3 Bft)
17.07.2015 18:36 31,3 C 27,8 C 46 % 0 lf 1011,4 hPa 0,0 l/m 2 min 0 min 370 W/m 23,0 km/h (4 Bft)
17.07.2015 18:38 31,2 C 27,8 C 47 % 0 lf 1011,3 hPa 0,0 l/m 2 min 0 min 356 W/m 20,9 km/h (4 Bft)
17.07.2015 18:40 31,2 C 27,8 C 47 % 0 lf 1011,4 hPa 0,0 l/m 2 min 0 min 363 W/m 18,8 km/h (3 Bft)
17.07.2015 18:42 31,2 C 27,8 C 48 % 0 lf 1011,4 hPa 0,0 l/m 2 min 0 min 331 W/m 12,6 km/h (3 Bft)
17.07.2015 18:44 31,1 C 27,8 C 48 % 0 lf 1011,4 hPa 0,0 l/m 2 min 0 min 353 W/m 23,0 km/h (4 Bft)
17.07.2015 18:46 31,1 C 27,8 C 49 % 0 lf 1011,3 hPa 0,0 l/m 2 min 0 min 345 W/m 27,2 km/h (4 Bft)
17.07.2015 18:48 31,0 C 27,8 C 50 % 0 lf 1011,3 hPa 0,0 l/m 2 min 0 min 327 W/m 25,1 km/h (4 Bft)
17.07.2015 18:50 30,9 C 27,8 C 51 % 0 lf 1011,4 hPa 0,0 l/m 2 min 0 min 334 W/m 14,6 km/h (3 Bft)
17.07.2015 18:52 30,9 C 27,8 C 51 % 0 lf 1011,3 hPa 0,0 l/m 2 min 0 min 318 W/m 18,8 km/h (3 Bft)
17.07.2015 18:54 30,9 C 27,8 C 51 % 0 lf 1011,4 hPa 0,0 l/m 2 min 0 min 324 W/m 14,6 km/h (3 Bft)
17.07.2015 18:56 30,8 C 27,8 C 51 % 0 lf 1011,4 hPa 0,0 l/m 2 min 0 min 321 W/m 12,6 km/h (3 Bft)
17.07.2015 18:58 30,8 C 27,8 C 51 % 0 lf 1011,3 hPa 0,0 l/m 2 min 0 min 316 W/m 16,7 km/h (3 Bft)
17.07.2015 19:00 30,7 C 27,8 C 51 % 0 lf 1011,3 hPa 0,0 l/m 2 min 0 min 308 W/m 18,8 km/h (3 Bft)
17.07.2015 19:02 30,7 C 27,2 C 52 % 0 lf 1011,3 hPa 0,0 l/m 2 min 0 min 300 W/m 18,8 km/h (3 Bft)
17.07.2015 19:04 30,6 C 27,2 C 51 % 0 lf 1011,3 hPa 0,0 l/m 2 min 0 min 294 W/m 16,7 km/h (3 Bft)
17.07.2015 19:06 30,6 C 27,2 C 52 % 0 lf 1011,4 hPa 0,0 l/m 2 min 0 min 291 W/m 18,8 km/h (3 Bft)
17.07.2015 19:08 30,6 C 27,2 C 53 % 0 lf 1011,4 hPa 0,0 l/m 2 min 0 min 288 W/m 14,6 km/h (3 Bft)
17.07.2015 19:10 30,5 C 27,2 C 53 % 0 lf 1011,3 hPa 0,0 l/m 2 min 0 min 286 W/m 20,9 km/h (4 Bft)
17.07.2015 19:12 30,4 C 27,2 C 53 % 0 lf 1011,3 hPa 0,0 l/m 2 min 0 min 282 W/m 18,8 km/h (3 Bft)
17.07.2015 19:14 30,4 C 27,2 C 53 % 0 lf 1011,3 hPa 0,0 l/m 2 min 0 min 279 W/m 16,7 km/h (3 Bft)
17.07.2015 19:16 30,3 C 27,2 C 53 % 0 lf 1011,3 hPa 0,0 l/m 2 min 0 min 278 W/m 14,6 km/h (3 Bft)
17.07.2015 19:18 30,3 C 27,2 C 54 % 0 lf 1011,3 hPa 0,0 l/m 2 min 0 min 274 W/m 18,8 km/h (3 Bft)
17.07.2015 19:20 30,3 C 27,2 C 54 % 0 lf 1011,3 hPa 0,0 l/m 2 min 0 min 271 W/m 14,6 km/h (3 Bft)
17.07.2015 19:22 30,2 C 27,2 C 54 % 0 lf 1011,4 hPa 0,0 l/m 2 min 0 min 264 W/m 16,7 km/h (3 Bft)
17.07.2015 19:24 30,2 C 27,2 C 54 % 0 lf 1011,4 hPa 0,0 l/m 2 min 0 min 256 W/m 14,6 km/h (3 Bft)
17.07.2015 19:26 30,1 C 27,2 C 54 % 0 lf 1011,4 hPa 0,0 l/m 2 min 0 min 250 W/m 12,6 km/h (3 Bft)
17.07.2015 19:28 30,1 C 27,2 C 55 % 0 lf 1011,5 hPa 0,0 l/m 2 min 0 min 245 W/m 14,6 km/h (3 Bft)
17.07.2015 19:30 30,0 C 27,2 C 55 % 0 lf 1011,4 hPa 0,0 l/m 2 min 0 min 234 W/m 12,6 km/h (3 Bft)
17.07.2015 19:32 29,9 C 27,2 C 55 % 0 lf 1011,5 hPa 0,0 l/m 2 min 0 min 227 W/m 16,7 km/h (3 Bft)
17.07.2015 19:34 29,9 C 27,2 C 55 % 0 lf 1011,5 hPa 0,0 l/m 2 min 0 min 220 W/m 14,6 km/h (3 Bft)
17.07.2015 19:36 29,8 C 27,2 C 55 % 0 lf 1011,4 hPa 0,0 l/m 2 min 0 min 214 W/m 14,6 km/h (3 Bft)
17.07.2015 19:38 29,8 C 27,2 C 55 % 0 lf 1011,4 hPa 0,0 l/m 2 min 0 min 207 W/m 12,6 km/h (3 Bft)
17.07.2015 19:40 29,8 C 27,2 C 55 % 0 lf 1011,4 hPa 0,0 l/m 2 min 0 min 201 W/m 16,7 km/h (3 Bft)
17.07.2015 19:42 29,7 C 26,7 C 56 % 0 lf 1011,5 hPa 0,0 l/m 2 min 0 min 195 W/m 16,7 km/h (3 Bft)
17.07.2015 19:44 29,7 C 26,7 C 56 % 0 lf 1011,4 hPa 0,0 l/m 2 min 0 min 191 W/m 18,8 km/h (3 Bft)
17.07.2015 19:46 29,6 C 27,2 C 56 % 0 lf 1011,4 hPa 0,0 l/m 2 min 0 min 186 W/m 14,6 km/h (3 Bft)
17.07.2015 19:48 29,5 C 26,7 C 56 % 0 lf 1011,3 hPa 0,0 l/m 2 min 0 min 180 W/m 14,6 km/h (3 Bft)
17.07.2015 19:52 29,4 C 26,7 C 56 % 0 lf 1011,5 hPa 0,0 l/m 2 min 0 min 171 W/m 18,8 km/h (3 Bft)
17.07.2015 19:54 29,4 C 26,7 C 57 % 0 lf 1011,5 hPa 0,0 l/m 2 min 0 min 165 W/m 14,6 km/h (3 Bft)
17.07.2015 19:56 29,3 C 26,7 C 57 % 0 lf 1011,5 hPa 0,0 l/m 2 min 0 min 159 W/m 10,5 km/h (2 Bft)
17.07.2015 19:58 29,3 C 26,7 C 57 % 0 lf 1011,6 hPa 0,0 l/m 2 min 0 min 153 W/m 16,7 km/h (3 Bft)
17.07.2015 20:00 29,2 C 26,7 C 57 % 0 lf 1011,6 hPa 0,0 l/m 2 min 0 min 147 W/m 12,6 km/h (3 Bft)
17.07.2015 20:02 29,2 C 26,1 C 57 % 0 lf 1011,6 hPa 0,0 l/m 2 min 0 min 140 W/m 10,5 km/h (2 Bft)
17.07.2015 20:04 29,2 C 26,1 C 57 % 0 lf 1011,5 hPa 0,0 l/m 2 min 0 min 136 W/m 10,5 km/h (2 Bft)
17.07.2015 20:06 29,1 C 26,1 C 57 % 0 lf 1011,6 hPa 0,0 l/m 2 min 0 min 129 W/m 10,5 km/h (2 Bft)
17.07.2015 20:08 29,1 C 26,1 C 57 % 0 lf 1011,6 hPa 0,0 l/m 2 min 0 min 124 W/m 14,6 km/h (3 Bft)
17.07.2015 20:10 29,0 C 26,1 C 57 % 0 lf 1011,5 hPa 0,0 l/m 2 min 0 min 119 W/m 10,5 km/h (2 Bft)
17.07.2015 20:12 29,0 C 26,1 C 58 % 0 lf 1011,6 hPa 0,0 l/m 2 min 0 min 114 W/m 16,7 km/h (3 Bft)
17.07.2015 20:14 28,9 C 26,1 C 57 % 0 lf 1011,6 hPa 0,0 l/m 2 min 0 min 110 W/m 20,9 km/h (4 Bft)
17.07.2015 20:16 28,9 C 26,1 C 57 % 0 lf 1011,6 hPa 0,0 l/m 2 min 0 min 105 W/m 10,5 km/h (2 Bft)
17.07.2015 20:18 28,8 C 26,1 C 58 % 0 lf 1011,7 hPa 0,0 l/m 2 min 0 min 100 W/m 12,6 km/h (3 Bft)
17.07.2015 20:20 28,8 C 26,1 C 58 % 0 lf 1011,6 hPa 0,0 l/m 2 min 0 min 95 W/m 12,6 km/h (3 Bft)
17.07.2015 20:22 28,8 C 26,1 C 58 % 0 lf 1011,7 hPa 0,0 l/m 2 min 0 min 91 W/m 8,4 km/h (2 Bft)
17.07.2015 20:24 28,7 C 26,1 C 58 % 0 lf 1011,7 hPa 0,0 l/m 2 min 0 min 87 W/m 16,7 km/h (3 Bft)
17.07.2015 20:26 28,7 C 26,1 C 58 % 0 lf 1011,8 hPa 0,0 l/m 2 min 0 min 83 W/m 14,6 km/h (3 Bft)
17.07.2015 20:28 28,7 C 26,1 C 58 % 0 lf 1011,7 hPa 0,0 l/m 2 min 0 min 78 W/m 14,6 km/h (3 Bft)
17.07.2015 20:30 28,6 C 26,1 C 58 % 0 lf 1011,7 hPa 0,0 l/m 2 min 0 min 76 W/m 10,5 km/h (2 Bft)
17.07.2015 20:32 28,6 C 26,1 C 58 % 0 lf 1011,7 hPa 0,0 l/m 2 min 0 min 73 W/m 8,4 km/h (2 Bft)
17.07.2015 20:34 28,6 C 25,6 C 58 % 0 lf 1011,7 hPa 0,0 l/m 0 min 0 min 69 W/m 12,6 km/h (3 Bft)
17.07.2015 20:36 28,5 C 25,6 C 58 % 0 lf 1011,8 hPa 0,0 l/m 0 min 0 min 66 W/m 6,3 km/h (2 Bft)
17.07.2015 20:38 28,4 C 25,6 C 58 % 0 lf 1011,8 hPa 0,0 l/m 0 min 0 min 63 W/m 10,5 km/h (2 Bft)
17.07.2015 20:40 28,4 C 25,6 C 59 % 0 lf 1011,8 hPa 0,0 l/m 0 min 0 min 60 W/m 8,4 km/h (2 Bft)
17.07.2015 20:42 28,4 C 25,6 C 59 % 0 lf 1011,8 hPa 0,0 l/m 0 min 0 min 58 W/m 8,4 km/h (2 Bft)
17.07.2015 20:44 28,3 C 25,6 C 59 % 0 lf 1011,9 hPa 0,0 l/m 0 min 0 min 54 W/m 8,4 km/h (2 Bft)
17.07.2015 20:46 28,3 C 25,6 C 59 % 0 lf 1011,9 hPa 0,0 l/m 0 min 0 min 50 W/m 8,4 km/h (2 Bft)
17.07.2015 20:48 28,3 C 25,6 C 60 % 0 lf 1011,8 hPa 0,0 l/m 0 min 0 min 48 W/m 14,6 km/h (3 Bft)
17.07.2015 20:50 28,2 C 25,6 C 60 % 0 lf 1011,9 hPa 0,0 l/m 0 min 0 min 46 W/m 14,6 km/h (3 Bft)
17.07.2015 20:52 28,2 C 25,6 C 60 % 0 lf 1011,9 hPa 0,0 l/m 0 min 0 min 42 W/m 14,6 km/h (3 Bft)
17.07.2015 20:54 28,1 C 25,6 C 60 % 0 lf 1012,0 hPa 0,0 l/m 0 min 0 min 40 W/m 12,6 km/h (3 Bft)
17.07.2015 20:56 28,1 C 25,0 C 61 % 0 lf 1012,0 hPa 0,0 l/m 0 min 0 min 35 W/m 10,5 km/h (2 Bft)
17.07.2015 20:58 28,0 C 25,0 C 61 % 0 lf 1012,0 hPa 0,0 l/m 0 min 0 min 31 W/m 12,6 km/h (3 Bft)
17.07.2015 21:00 27,9 C 25,0 C 61 % 0 lf 1012,1 hPa 0,0 l/m 0 min 0 min 30 W/m 10,5 km/h (2 Bft)
17.07.2015 21:02 27,9 C 25,0 C 61 % 0 lf 1012,0 hPa 0,0 l/m 0 min 0 min 30 W/m 8,4 km/h (2 Bft)
17.07.2015 21:04 27,8 C 25,0 C 61 % 0 lf 1012,0 hPa 0,0 l/m 0 min 0 min 28 W/m 8,4 km/h (2 Bft)
17.07.2015 21:06 27,8 C 25,0 C 61 % 0 lf 1012,1 hPa 0,0 l/m 0 min 0 min 26 W/m 8,4 km/h (2 Bft)
17.07.2015 21:08 27,7 C 25,0 C 62 % 0 lf 1012,1 hPa 0,0 l/m 0 min 0 min 26 W/m 10,5 km/h (2 Bft)
17.07.2015 21:10 27,6 C 25,0 C 62 % 0 lf 1012,2 hPa 0,0 l/m 0 min 0 min 24 W/m 10,5 km/h (2 Bft)
17.07.2015 21:12 27,6 C 25,0 C 62 % 0 lf 1012,1 hPa 0,0 l/m 0 min 0 min 23 W/m 6,3 km/h (2 Bft)
17.07.2015 21:14 27,5 C 24,4 C 62 % 0 lf 1012,1 hPa 0,0 l/m 0 min 0 min 20 W/m 12,6 km/h (3 Bft)
17.07.2015 21:16 27,4 C 24,4 C 62 % 0 lf 1012,1 hPa 0,0 l/m 0 min 0 min 19 W/m 10,5 km/h (2 Bft)
17.07.2015 21:18 27,4 C 24,4 C 63 % 0 lf 1012,2 hPa 0,0 l/m 0 min 0 min 17 W/m 12,6 km/h (3 Bft)
17.07.2015 21:20 27,3 C 24,4 C 63 % 0 lf 1012,2 hPa 0,0 l/m 0 min 0 min 16 W/m 8,4 km/h (2 Bft)
17.07.2015 21:22 27,2 C 24,4 C 63 % 0 lf 1012,2 hPa 0,0 l/m 0 min 0 min 15 W/m 10,5 km/h (2 Bft)
17.07.2015 21:24 27,2 C 24,4 C 63 % 0 lf 1012,2 hPa 0,0 l/m 0 min 0 min 14 W/m 8,4 km/h (2 Bft)
17.07.2015 21:26 27,1 C 24,4 C 64 % 0 lf 1012,2 hPa 0,0 l/m 0 min 0 min 14 W/m 12,6 km/h (3 Bft)
17.07.2015 21:28 27,0 C 24,4 C 64 % 0 lf 1012,2 hPa 0,0 l/m 0 min 0 min 12 W/m 10,5 km/h (2 Bft)
17.07.2015 21:30 26,9 C 23,9 C 64 % 0 lf 1012,3 hPa 0,0 l/m 0 min 0 min 11 W/m 12,6 km/h (3 Bft)
17.07.2015 21:32 26,8 C 23,9 C 65 % 0 lf 1012,3 hPa 0,0 l/m 0 min 0 min 11 W/m 12,6 km/h (3 Bft)
17.07.2015 21:34 26,7 C 23,9 C 65 % 0 lf 1012,3 hPa 0,0 l/m 0 min 0 min 9 W/m 12,6 km/h (3 Bft)
17.07.2015 21:36 26,6 C 23,9 C 65 % 0 lf 1012,3 hPa 0,0 l/m 0 min 0 min 9 W/m 10,5 km/h (2 Bft)
17.07.2015 21:38 26,6 C 23,9 C 65 % 0 lf 1012,3 hPa 0,0 l/m 0 min 0 min 7 W/m 12,6 km/h (3 Bft)
17.07.2015 21:40 26,4 C 23,9 C 66 % 0 lf 1012,3 hPa 0,0 l/m 0 min 0 min 7 W/m 8,4 km/h (2 Bft)
17.07.2015 21:42 26,4 C 23,9 C 66 % 0 lf 1012,4 hPa 0,0 l/m 0 min 0 min 6 W/m 10,5 km/h (2 Bft)
17.07.2015 21:44 26,3 C 23,3 C 66 % 0 lf 1012,4 hPa 0,0 l/m 0 min 0 min 5 W/m 8,4 km/h (2 Bft)
17.07.2015 21:46 26,2 C 23,3 C 66 % 0 lf 1012,4 hPa 0,0 l/m 0 min 0 min 5 W/m 8,4 km/h (2 Bft)
17.07.2015 21:48 26,2 C 23,3 C 67 % 0 lf 1012,5 hPa 0,0 l/m 0 min 0 min 5 W/m 10,5 km/h (2 Bft)
17.07.2015 21:50 26,1 C 23,3 C 67 % 0 lf 1012,5 hPa 0,0 l/m 0 min 0 min 0 W/m 6,3 km/h (2 Bft)
17.07.2015 21:52 26,0 C 23,3 C 67 % 0 lf 1012,6 hPa 0,0 l/m 0 min 0 min 0 W/m 6,3 km/h (2 Bft)
17.07.2015 21:54 25,9 C 23,3 C 67 % 0 lf 1012,6 hPa 0,0 l/m 0 min 0 min 0 W/m 10,5 km/h (2 Bft)
17.07.2015 21:56 25,9 C 22,8 C 67 % 0 lf 1012,6 hPa 0,0 l/m 0 min 0 min 0 W/m 8,4 km/h (2 Bft)
17.07.2015 21:58 25,8 C 22,8 C 68 % 0 lf 1012,7 hPa 0,0 l/m 0 min 0 min 0 W/m 6,3 km/h (2 Bft)
17.07.2015 22:00 25,8 C 22,8 C 68 % 0 lf 1012,7 hPa 0,0 l/m 0 min 0 min 0 W/m 10,5 km/h (2 Bft)
17.07.2015 22:02 25,7 C 22,8 C 68 % 0 lf 1012,7 hPa 0,0 l/m 0 min 0 min 0 W/m 6,3 km/h (2 Bft)
17.07.2015 22:04 25,7 C 22,8 C 68 % 0 lf 1012,8 hPa 0,0 l/m 0 min 0 min 0 W/m 6,3 km/h (2 Bft)
17.07.2015 22:06 25,6 C 22,8 C 68 % 0 lf 1012,8 hPa 0,0 l/m 0 min 0 min 0 W/m 8,4 km/h (2 Bft)
17.07.2015 22:08 25,6 C 22,8 C 68 % 0 lf 1012,9 hPa 0,0 l/m 0 min 0 min 0 W/m 10,5 km/h (2 Bft)
17.07.2015 22:10 25,5 C 22,8 C 69 % 0 lf 1012,9 hPa 0,0 l/m 0 min 0 min 0 W/m 16,7 km/h (3 Bft)
17.07.2015 22:12 25,4 C 22,8 C 69 % 0 lf 1012,9 hPa 0,0 l/m 0 min 0 min 0 W/m 16,7 km/h (3 Bft)
17.07.2015 22:14 25,3 C 22,8 C 69 % 0 lf 1012,9 hPa 0,0 l/m 0 min 0 min 0 W/m 8,4 km/h (2 Bft)
17.07.2015 22:16 25,2 C 22,8 C 69 % 0 lf 1012,9 hPa 0,0 l/m 0 min 0 min 0 W/m 12,6 km/h (3 Bft)
17.07.2015 22:18 25,1 C 22,8 C 70 % 0 lf 1013,0 hPa 0,0 l/m 0 min 0 min 0 W/m 8,4 km/h (2 Bft)
17.07.2015 22:20 25,1 C 22,8 C 70 % 0 lf 1013,0 hPa 0,0 l/m 0 min 0 min 0 W/m 10,5 km/h (2 Bft)
17.07.2015 22:22 25,1 C 22,8 C 70 % 0 lf 1013,1 hPa 0,0 l/m 0 min 0 min 0 W/m 12,6 km/h (3 Bft)
17.07.2015 22:24 25,0 C 22,8 C 70 % 0 lf 1013,1 hPa 0,0 l/m 0 min 0 min 0 W/m 12,6 km/h (3 Bft)
17.07.2015 22:26 24,9 C 22,2 C 71 % 0 lf 1013,3 hPa 0,0 l/m 0 min 0 min 0 W/m 10,5 km/h (2 Bft)
17.07.2015 22:28 24,8 C 22,2 C 71 % 0 lf 1013,3 hPa 0,0 l/m 0 min 0 min 0 W/m 14,6 km/h (3 Bft)
17.07.2015 22:30 24,7 C 22,2 C 71 % 0 lf 1013,4 hPa 0,0 l/m 0 min 0 min 0 W/m 10,5 km/h (2 Bft)
17.07.2015 22:32 24,7 C 22,2 C 71 % 0 lf 1013,4 hPa 0,0 l/m 0 min 0 min 0 W/m 10,5 km/h (2 Bft)
17.07.2015 22:34 24,6 C 22,2 C 71 % 0 lf 1013,4 hPa 0,0 l/m 0 min 0 min 0 W/m 10,5 km/h (2 Bft)
17.07.2015 22:36 24,6 C 22,2 C 72 % 0 lf 1013,3 hPa 0,0 l/m 0 min 0 min 0 W/m 12,6 km/h (3 Bft)
17.07.2015 22:38 24,5 C 22,2 C 72 % 0 lf 1013,3 hPa 0,0 l/m 0 min 0 min 0 W/m 8,4 km/h (2 Bft)
17.07.2015 22:40 24,4 C 22,2 C 72 % 0 lf 1013,3 hPa 0,0 l/m 0 min 0 min 0 W/m 8,4 km/h (2 Bft)
17.07.2015 22:42 24,4 C 21,7 C 72 % 0 lf 1013,4 hPa 0,0 l/m 0 min 0 min 0 W/m 8,4 km/h (2 Bft)
17.07.2015 22:44 24,3 C 21,7 C 72 % 0 lf 1013,3 hPa 0,0 l/m 0 min 0 min 0 W/m 14,6 km/h (3 Bft)
17.07.2015 22:46 24,3 C 21,7 C 72 % 0 lf 1013,3 hPa 0,0 l/m 0 min 0 min 0 W/m 10,5 km/h (2 Bft)
17.07.2015 22:48 24,2 C 21,7 C 72 % 0 lf 1013,4 hPa 0,0 l/m 0 min 0 min 0 W/m 8,4 km/h (2 Bft)
17.07.2015 22:50 24,2 C 21,7 C 73 % 0 lf 1013,4 hPa 0,0 l/m 0 min 0 min 0 W/m 8,4 km/h (2 Bft)
17.07.2015 22:52 24,1 C 21,7 C 73 % 0 lf 1013,4 hPa 0,0 l/m 0 min 0 min 0 W/m 6,3 km/h (2 Bft)
17.07.2015 22:54 24,1 C 21,7 C 73 % 0 lf 1013,4 hPa 0,0 l/m 0 min 0 min 0 W/m 8,4 km/h (2 Bft)
17.07.2015 22:56 24,0 C 21,7 C 73 % 0 lf 1013,3 hPa 0,0 l/m 0 min 0 min 0 W/m 6,3 km/h (2 Bft)
17.07.2015 22:58 24,0 C 21,1 C 73 % 0 lf 1013,4 hPa 0,0 l/m 0 min 0 min 0 W/m 6,3 km/h (2 Bft)
17.07.2015 23:00 23,9 C 21,1 C 73 % 0 lf 1013,4 hPa 0,0 l/m 0 min 0 min 0 W/m 4,2 km/h (1 Bft)
17.07.2015 23:02 23,9 C 21,1 C 73 % 0 lf 1013,4 hPa 0,0 l/m 0 min 0 min 0 W/m 2,1 km/h (1 Bft)
17.07.2015 23:04 23,8 C 21,1 C 73 % 0 lf 1013,4 hPa 0,0 l/m 0 min 0 min 0 W/m 0,0 km/h (0 Bft)
17.07.2015 23:06 23,8 C 20,6 C 73 % 0 lf 1013,3 hPa 0,0 l/m 0 min 0 min 0 W/m 0,0 km/h (0 Bft)
17.07.2015 23:08 23,8 C 20,6 C 74 % 0 lf 1013,4 hPa 0,0 l/m 0 min 0 min 0 W/m 0,0 km/h (0 Bft)
17.07.2015 23:10 23,7 C 20,6 C 74 % 0 lf 1013,4 hPa 0,0 l/m 0 min 0 min 0 W/m 0,0 km/h (0 Bft)
17.07.2015 23:12 23,7 C 20,6 C 74 % 0 lf 1013,4 hPa 0,0 l/m 0 min 0 min 0 W/m 0,0 km/h (0 Bft)
17.07.2015 23:14 23,6 C 20,6 C 74 % 0 lf 1013,4 hPa 0,0 l/m 0 min 0 min 0 W/m 0,0 km/h (0 Bft)
17.07.2015 23:16 23,6 C 20,6 C 74 % 0 lf 1013,4 hPa 0,0 l/m 0 min 0 min 0 W/m 0,0 km/h (0 Bft)
17.07.2015 23:18 23,6 C 20,6 C 74 % 0 lf 1013,4 hPa 0,0 l/m 0 min 0 min 0 W/m 0,0 km/h (0 Bft)
17.07.2015 23:20 23,5 C 20,0 C 74 % 0 lf 1013,4 hPa 0,0 l/m 0 min 0 min 0 W/m 0,0 km/h (0 Bft)
17.07.2015 23:22 23,4 C 20,0 C 74 % 0 lf 1013,4 hPa 0,0 l/m 0 min 0 min 0 W/m 0,0 km/h (0 Bft)
17.07.2015 23:24 23,4 C 20,0 C 75 % 0 lf 1013,4 hPa 0,0 l/m 0 min 0 min 0 W/m 0,0 km/h (0 Bft)
17.07.2015 23:26 23,3 C 20,0 C 75 % 0 lf 1013,5 hPa 0,0 l/m 0 min 0 min 0 W/m 0,0 km/h (0 Bft)
17.07.2015 23:28 23,3 C 20,0 C 75 % 0 lf 1013,4 hPa 0,0 l/m 0 min 0 min 0 W/m 0,0 km/h (0 Bft)
17.07.2015 23:30 23,3 C 20,0 C 75 % 0 lf 1013,4 hPa 0,0 l/m 0 min 0 min 0 W/m 0,0 km/h (0 Bft)
17.07.2015 23:32 23,2 C 20,0 C 75 % 0 lf 1013,4 hPa 0,0 l/m 0 min 0 min 0 W/m 0,0 km/h (0 Bft)
17.07.2015 23:34 23,2 C 20,0 C 76 % 0 lf 1013,4 hPa 0,0 l/m 0 min 0 min 0 W/m 0,0 km/h (0 Bft)
17.07.2015 23:36 23,1 C 20,0 C 76 % 0 lf 1013,4 hPa 0,0 l/m 0 min 0 min 0 W/m 0,0 km/h (0 Bft)
17.07.2015 23:38 23,1 C 20,0 C 76 % 0 lf 1013,4 hPa 0,0 l/m 0 min 0 min 0 W/m 0,0 km/h (0 Bft)
17.07.2015 23:40 23,1 C 20,0 C 76 % 0 lf 1013,4 hPa 0,0 l/m 0 min 0 min 0 W/m 0,0 km/h (0 Bft)
17.07.2015 23:42 23,0 C 20,0 C 76 % 0 lf 1013,4 hPa 0,0 l/m 0 min 0 min 0 W/m 0,0 km/h (0 Bft)
17.07.2015 23:44 22,9 C 19,4 C 76 % 0 lf 1013,4 hPa 0,0 l/m 0 min 0 min 0 W/m 0,0 km/h (0 Bft)
17.07.2015 23:46 22,9 C 19,4 C 77 % 0 lf 1013,4 hPa 0,0 l/m 0 min 0 min 0 W/m 0,0 km/h (0 Bft)
17.07.2015 23:48 22,8 C 19,4 C 77 % 0 lf 1013,4 hPa 0,0 l/m 0 min 0 min 0 W/m 0,0 km/h (0 Bft)
17.07.2015 23:50 22,8 C 19,4 C 77 % 0 lf 1013,4 hPa 0,0 l/m 0 min 0 min 0 W/m 0,0 km/h (0 Bft)
17.07.2015 23:52 22,8 C 19,4 C 77 % 0 lf 1013,4 hPa 0,0 l/m 0 min 0 min 0 W/m 0,0 km/h (0 Bft)
17.07.2015 23:54 22,7 C 19,4 C 77 % 0 lf 1013,4 hPa 0,0 l/m 0 min 0 min 0 W/m 0,0 km/h (0 Bft)
17.07.2015 23:56 22,7 C 19,4 C 77 % 0 lf 1013,3 hPa 0,0 l/m 0 min 0 min 0 W/m 0,0 km/h (0 Bft)
17.07.2015 23:58 22,6 C 19,4 C 78 % 0 lf 1013,3 hPa 0,0 l/m 0 min 0 min 0 W/m 0,0 km/h (0 Bft)
_ Min-Zeit 03:48 02:44 16:24 00:00 05:22 - - - - 23:04
Minimum _ 20,8 C 17,8 C 37 % 0 lf 1009,4 hPa - - - - 0,0 km/h (0 Bft)
_ Max-Zeit 16:12 12:12 03:54 02:40 00:05 00:00 07:16 00:24 13:46 09:22
Maximum _ 33,8 C 33,9 C 86 % 15 lf 1014,1 hPa 0,0 l/m 2 min 2 min 874 W/m 48,1 km/h
W-SW (6 Bft)
Durchschnitt _ 26,9 C 25,1 C 64 % 0 lf 1011,8 hPa #0,0 l/m #12:29 h #40 min. 465 W/m 18,5 km/h (3 Bft)
© 2015 W. Hausmann